<?xml version="1.0" encoding="UTF-8" standalone="no" ?>
<gpx xmlns="http://www.topografix.com/GPX/1/1" xmlns:xsi="http://www.w3.org/2001/XMLSchema-instance" xsi:schemaLocation="http://www.topografix.com/GPX/1/1 http://www.topografix.com/GPX/1/1/gpx.xsd" version="1.1" creator="VisuGPX - https://www.visugpx.com">
  <metadata>
    <name>21 09 2025 Avoise 67 km</name>
  </metadata>
  <trk>
    <name><![CDATA[2 - Avoine 67 km]]></name>
    <extensions>
      <line xmlns="http://www.topografix.com/GPX/gpx_style/0/2">
        <color>FF0000</color>
        <opacity>1</opacity>
        <width>6</width>
          <extensions>
            <sens>1</sens>
          </extensions>
      </line>
    </extensions>
    <trkseg>
      <trkpt lat="47.70261" lon="-0.04845">
        <ele>31.3</ele>
      </trkpt>
      <trkpt lat="47.702" lon="-0.05009">
        <ele>32</ele>
      </trkpt>
      <trkpt lat="47.7011" lon="-0.05136">
        <ele>32.1</ele>
      </trkpt>
      <trkpt lat="47.7019" lon="-0.0526">
        <ele>32</ele>
      </trkpt>
      <trkpt lat="47.70198" lon="-0.05274">
        <ele>31.9</ele>
      </trkpt>
      <trkpt lat="47.70205" lon="-0.05281">
        <ele>31.7</ele>
      </trkpt>
      <trkpt lat="47.70154" lon="-0.05443">
        <ele>31.5</ele>
      </trkpt>
      <trkpt lat="47.70091" lon="-0.05559">
        <ele>32</ele>
      </trkpt>
      <trkpt lat="47.69758" lon="-0.06214">
        <ele>30</ele>
      </trkpt>
      <trkpt lat="47.69807" lon="-0.06501">
        <ele>30</ele>
      </trkpt>
      <trkpt lat="47.69921" lon="-0.06943">
        <ele>30</ele>
      </trkpt>
      <trkpt lat="47.70101" lon="-0.06942">
        <ele>29.1</ele>
      </trkpt>
      <trkpt lat="47.70137" lon="-0.0695">
        <ele>29</ele>
      </trkpt>
      <trkpt lat="47.70312" lon="-0.06823">
        <ele>30</ele>
      </trkpt>
      <trkpt lat="47.70381" lon="-0.06836">
        <ele>30</ele>
      </trkpt>
      <trkpt lat="47.70412" lon="-0.06849">
        <ele>30</ele>
      </trkpt>
      <trkpt lat="47.70519" lon="-0.06875">
        <ele>29.7</ele>
      </trkpt>
      <trkpt lat="47.7066" lon="-0.06828">
        <ele>30</ele>
      </trkpt>
      <trkpt lat="47.70688" lon="-0.06825">
        <ele>30</ele>
      </trkpt>
      <trkpt lat="47.70786" lon="-0.06833">
        <ele>31</ele>
      </trkpt>
      <trkpt lat="47.70805" lon="-0.07027">
        <ele>31</ele>
      </trkpt>
      <trkpt lat="47.70997" lon="-0.07115">
        <ele>31</ele>
      </trkpt>
      <trkpt lat="47.71295" lon="-0.07327">
        <ele>31</ele>
      </trkpt>
      <trkpt lat="47.71589" lon="-0.07385">
        <ele>35.3</ele>
      </trkpt>
      <trkpt lat="47.71532" lon="-0.07652">
        <ele>34.8</ele>
      </trkpt>
      <trkpt lat="47.71521" lon="-0.08134">
        <ele>39.1</ele>
      </trkpt>
      <trkpt lat="47.71476" lon="-0.0835">
        <ele>36.2</ele>
      </trkpt>
      <trkpt lat="47.71518" lon="-0.08568">
        <ele>38</ele>
        <time>2025-06-17T17:15:01Z</time>
      </trkpt>
      <trkpt lat="47.71505" lon="-0.08649">
        <ele>40</ele>
        <time>2025-06-17T17:15:09Z</time>
      </trkpt>
      <trkpt lat="47.71499" lon="-0.08679">
        <ele>40</ele>
        <time>2025-06-17T17:15:13Z</time>
      </trkpt>
      <trkpt lat="47.71483" lon="-0.0877">
        <ele>41</ele>
        <time>2025-06-17T17:15:24Z</time>
      </trkpt>
      <trkpt lat="47.71467" lon="-0.08871">
        <ele>41</ele>
        <time>2025-06-17T17:15:37Z</time>
      </trkpt>
      <trkpt lat="47.71466" lon="-0.08889">
        <ele>41</ele>
        <time>2025-06-17T17:15:39Z</time>
      </trkpt>
      <trkpt lat="47.71465" lon="-0.0891">
        <ele>41</ele>
        <time>2025-06-17T17:15:41Z</time>
      </trkpt>
      <trkpt lat="47.71464" lon="-0.08928">
        <ele>41</ele>
        <time>2025-06-17T17:15:43Z</time>
      </trkpt>
      <trkpt lat="47.71466" lon="-0.0896">
        <ele>40</ele>
        <time>2025-06-17T17:15:47Z</time>
      </trkpt>
      <trkpt lat="47.7147" lon="-0.08988">
        <ele>40</ele>
        <time>2025-06-17T17:15:51Z</time>
      </trkpt>
      <trkpt lat="47.71476" lon="-0.0901">
        <ele>40</ele>
        <time>2025-06-17T17:15:54Z</time>
      </trkpt>
      <trkpt lat="47.71512" lon="-0.09089">
        <ele>40</ele>
        <time>2025-06-17T17:16:05Z</time>
      </trkpt>
      <trkpt lat="47.71544" lon="-0.09163">
        <ele>41</ele>
        <time>2025-06-17T17:16:16Z</time>
      </trkpt>
      <trkpt lat="47.7161" lon="-0.09332">
        <ele>43</ele>
        <time>2025-06-17T17:16:39Z</time>
      </trkpt>
      <trkpt lat="47.7166" lon="-0.09451">
        <ele>42</ele>
        <time>2025-06-17T17:16:56Z</time>
      </trkpt>
      <trkpt lat="47.71677" lon="-0.09497">
        <ele>43</ele>
        <time>2025-06-17T17:17:02Z</time>
      </trkpt>
      <trkpt lat="47.71687" lon="-0.09538">
        <ele>43</ele>
        <time>2025-06-17T17:17:07Z</time>
      </trkpt>
      <trkpt lat="47.71694" lon="-0.09575">
        <ele>43</ele>
        <time>2025-06-17T17:17:12Z</time>
      </trkpt>
      <trkpt lat="47.71704" lon="-0.09602">
        <ele>44</ele>
        <time>2025-06-17T17:17:16Z</time>
      </trkpt>
      <trkpt lat="47.71728" lon="-0.09651">
        <ele>44</ele>
        <time>2025-06-17T17:17:23Z</time>
      </trkpt>
      <trkpt lat="47.71743" lon="-0.09682">
        <ele>44</ele>
        <time>2025-06-17T17:17:27Z</time>
      </trkpt>
      <trkpt lat="47.71755" lon="-0.09704">
        <ele>44</ele>
        <time>2025-06-17T17:17:31Z</time>
      </trkpt>
      <trkpt lat="47.7179" lon="-0.09772">
        <ele>44</ele>
        <time>2025-06-17T17:17:41Z</time>
      </trkpt>
      <trkpt lat="47.71813" lon="-0.0982">
        <ele>44</ele>
        <time>2025-06-17T17:17:48Z</time>
      </trkpt>
      <trkpt lat="47.71829" lon="-0.09855">
        <ele>44</ele>
        <time>2025-06-17T17:17:53Z</time>
      </trkpt>
      <trkpt lat="47.71837" lon="-0.09878">
        <ele>44</ele>
        <time>2025-06-17T17:17:56Z</time>
      </trkpt>
      <trkpt lat="47.71842" lon="-0.09899">
        <ele>43</ele>
        <time>2025-06-17T17:17:59Z</time>
      </trkpt>
      <trkpt lat="47.71847" lon="-0.09927">
        <ele>43</ele>
        <time>2025-06-17T17:18:02Z</time>
      </trkpt>
      <trkpt lat="47.71852" lon="-0.09991">
        <ele>43</ele>
        <time>2025-06-17T17:18:10Z</time>
      </trkpt>
      <trkpt lat="47.71861" lon="-0.10092">
        <ele>42</ele>
        <time>2025-06-17T17:18:22Z</time>
      </trkpt>
      <trkpt lat="47.71859" lon="-0.10094">
        <ele>42</ele>
        <time>2025-06-17T17:18:23Z</time>
      </trkpt>
      <trkpt lat="47.71867" lon="-0.10157">
        <ele>41</ele>
        <time>2025-06-17T17:18:32Z</time>
      </trkpt>
      <trkpt lat="47.71871" lon="-0.10198">
        <ele>42</ele>
        <time>2025-06-17T17:18:37Z</time>
      </trkpt>
      <trkpt lat="47.71874" lon="-0.10211">
        <ele>42</ele>
        <time>2025-06-17T17:18:39Z</time>
      </trkpt>
      <trkpt lat="47.71879" lon="-0.10221">
        <ele>42</ele>
        <time>2025-06-17T17:18:41Z</time>
      </trkpt>
      <trkpt lat="47.71959" lon="-0.10311">
        <ele>42</ele>
        <time>2025-06-17T17:18:58Z</time>
      </trkpt>
      <trkpt lat="47.71988" lon="-0.10339">
        <ele>43</ele>
        <time>2025-06-17T17:19:05Z</time>
      </trkpt>
      <trkpt lat="47.72047" lon="-0.10396">
        <ele>43</ele>
        <time>2025-06-17T17:19:17Z</time>
      </trkpt>
      <trkpt lat="47.72069" lon="-0.10417">
        <ele>44</ele>
        <time>2025-06-17T17:19:22Z</time>
      </trkpt>
      <trkpt lat="47.72079" lon="-0.10429">
        <ele>44</ele>
        <time>2025-06-17T17:19:24Z</time>
      </trkpt>
      <trkpt lat="47.72082" lon="-0.10434">
        <ele>44</ele>
        <time>2025-06-17T17:19:25Z</time>
      </trkpt>
      <trkpt lat="47.72073" lon="-0.10457">
        <ele>43</ele>
        <time>2025-06-17T17:19:28Z</time>
      </trkpt>
      <trkpt lat="47.72055" lon="-0.10495">
        <ele>43</ele>
        <time>2025-06-17T17:19:34Z</time>
      </trkpt>
      <trkpt lat="47.72053" lon="-0.10508">
        <ele>43</ele>
        <time>2025-06-17T17:19:35Z</time>
      </trkpt>
      <trkpt lat="47.72056" lon="-0.10517">
        <ele>43</ele>
        <time>2025-06-17T17:19:36Z</time>
      </trkpt>
      <trkpt lat="47.72061" lon="-0.10535">
        <ele>42</ele>
        <time>2025-06-17T17:19:39Z</time>
      </trkpt>
      <trkpt lat="47.72061" lon="-0.10545">
        <ele>42</ele>
        <time>2025-06-17T17:19:40Z</time>
      </trkpt>
      <trkpt lat="47.72057" lon="-0.10553">
        <ele>42</ele>
        <time>2025-06-17T17:19:41Z</time>
      </trkpt>
      <trkpt lat="47.72051" lon="-0.10567">
        <ele>42</ele>
        <time>2025-06-17T17:19:43Z</time>
      </trkpt>
      <trkpt lat="47.71995" lon="-0.10631">
        <ele>42</ele>
        <time>2025-06-17T17:19:56Z</time>
      </trkpt>
      <trkpt lat="47.71982" lon="-0.10649">
        <ele>42</ele>
        <time>2025-06-17T17:19:59Z</time>
      </trkpt>
      <trkpt lat="47.71979" lon="-0.10655">
        <ele>42</ele>
        <time>2025-06-17T17:20:00Z</time>
      </trkpt>
      <trkpt lat="47.71976" lon="-0.10662">
        <ele>42</ele>
        <time>2025-06-17T17:20:01Z</time>
      </trkpt>
      <trkpt lat="47.71972" lon="-0.10659">
        <ele>42</ele>
        <time>2025-06-17T17:20:01Z</time>
      </trkpt>
      <trkpt lat="47.71941" lon="-0.1063">
        <ele>43</ele>
        <time>2025-06-17T17:20:08Z</time>
      </trkpt>
      <trkpt lat="47.71937" lon="-0.10626">
        <ele>43</ele>
        <time>2025-06-17T17:20:09Z</time>
      </trkpt>
      <trkpt lat="47.71932" lon="-0.10622">
        <ele>43</ele>
        <time>2025-06-17T17:20:10Z</time>
      </trkpt>
      <trkpt lat="47.71929" lon="-0.10628">
        <ele>43</ele>
        <time>2025-06-17T17:20:11Z</time>
      </trkpt>
      <trkpt lat="47.71914" lon="-0.10661">
        <ele>43</ele>
        <time>2025-06-17T17:20:16Z</time>
      </trkpt>
      <trkpt lat="47.71909" lon="-0.1067">
        <ele>43</ele>
        <time>2025-06-17T17:20:17Z</time>
      </trkpt>
      <trkpt lat="47.71891" lon="-0.1072">
        <ele>41</ele>
        <time>2025-06-17T17:20:24Z</time>
      </trkpt>
      <trkpt lat="47.71877" lon="-0.10775">
        <ele>40</ele>
        <time>2025-06-17T17:20:31Z</time>
      </trkpt>
      <trkpt lat="47.71873" lon="-0.10785">
        <ele>40</ele>
        <time>2025-06-17T17:20:32Z</time>
      </trkpt>
      <trkpt lat="47.71839" lon="-0.10818">
        <ele>39</ele>
        <time>2025-06-17T17:20:39Z</time>
      </trkpt>
      <trkpt lat="47.71806" lon="-0.10902">
        <ele>38</ele>
        <time>2025-06-17T17:20:51Z</time>
      </trkpt>
      <trkpt lat="47.718" lon="-0.10924">
        <ele>38</ele>
        <time>2025-06-17T17:20:54Z</time>
      </trkpt>
      <trkpt lat="47.71798" lon="-0.10941">
        <ele>38</ele>
        <time>2025-06-17T17:20:56Z</time>
      </trkpt>
      <trkpt lat="47.71798" lon="-0.10957">
        <ele>38</ele>
        <time>2025-06-17T17:20:58Z</time>
      </trkpt>
      <trkpt lat="47.71803" lon="-0.10969">
        <ele>37</ele>
        <time>2025-06-17T17:21:00Z</time>
      </trkpt>
      <trkpt lat="47.71823" lon="-0.10995">
        <ele>37</ele>
        <time>2025-06-17T17:21:04Z</time>
      </trkpt>
      <trkpt lat="47.71828" lon="-0.11005">
        <ele>37</ele>
        <time>2025-06-17T17:21:06Z</time>
      </trkpt>
      <trkpt lat="47.71829" lon="-0.11018">
        <ele>37</ele>
        <time>2025-06-17T17:21:07Z</time>
      </trkpt>
      <trkpt lat="47.71825" lon="-0.11031">
        <ele>37</ele>
        <time>2025-06-17T17:21:09Z</time>
      </trkpt>
      <trkpt lat="47.7181" lon="-0.11055">
        <ele>37</ele>
        <time>2025-06-17T17:21:13Z</time>
      </trkpt>
      <trkpt lat="47.71801" lon="-0.1107">
        <ele>37</ele>
        <time>2025-06-17T17:21:15Z</time>
      </trkpt>
      <trkpt lat="47.71823" lon="-0.11114">
        <ele>37</ele>
        <time>2025-06-17T17:21:22Z</time>
      </trkpt>
      <trkpt lat="47.7184" lon="-0.11159">
        <ele>37</ele>
        <time>2025-06-17T17:21:28Z</time>
      </trkpt>
      <trkpt lat="47.71847" lon="-0.1118">
        <ele>37</ele>
        <time>2025-06-17T17:21:31Z</time>
      </trkpt>
      <trkpt lat="47.71853" lon="-0.11192">
        <ele>37</ele>
        <time>2025-06-17T17:21:33Z</time>
      </trkpt>
      <trkpt lat="47.71885" lon="-0.11232">
        <ele>38</ele>
        <time>2025-06-17T17:21:40Z</time>
      </trkpt>
      <trkpt lat="47.719" lon="-0.11255">
        <ele>38</ele>
        <time>2025-06-17T17:21:44Z</time>
      </trkpt>
      <trkpt lat="47.71912" lon="-0.11258">
        <ele>38</ele>
        <time>2025-06-17T17:21:46Z</time>
      </trkpt>
      <trkpt lat="47.71923" lon="-0.11265">
        <ele>38</ele>
        <time>2025-06-17T17:21:48Z</time>
      </trkpt>
      <trkpt lat="47.71944" lon="-0.1129">
        <ele>38</ele>
        <time>2025-06-17T17:21:53Z</time>
      </trkpt>
      <trkpt lat="47.7195" lon="-0.11295">
        <ele>37</ele>
        <time>2025-06-17T17:21:54Z</time>
      </trkpt>
      <trkpt lat="47.71961" lon="-0.113">
        <ele>37</ele>
        <time>2025-06-17T17:21:56Z</time>
      </trkpt>
      <trkpt lat="47.71995" lon="-0.11309">
        <ele>37</ele>
        <time>2025-06-17T17:22:02Z</time>
      </trkpt>
      <trkpt lat="47.72036" lon="-0.11331">
        <ele>38</ele>
        <time>2025-06-17T17:22:10Z</time>
      </trkpt>
      <trkpt lat="47.72072" lon="-0.11342">
        <ele>40</ele>
        <time>2025-06-17T17:22:17Z</time>
      </trkpt>
      <trkpt lat="47.72081" lon="-0.11346">
        <ele>40</ele>
        <time>2025-06-17T17:22:18Z</time>
      </trkpt>
      <trkpt lat="47.72091" lon="-0.11356">
        <ele>40</ele>
        <time>2025-06-17T17:22:21Z</time>
      </trkpt>
      <trkpt lat="47.7211" lon="-0.11387">
        <ele>40</ele>
        <time>2025-06-17T17:22:26Z</time>
      </trkpt>
      <trkpt lat="47.72186" lon="-0.1151">
        <ele>44</ele>
        <time>2025-06-17T17:22:46Z</time>
      </trkpt>
      <trkpt lat="47.72208" lon="-0.11539">
        <ele>46</ele>
        <time>2025-06-17T17:22:51Z</time>
      </trkpt>
      <trkpt lat="47.7222" lon="-0.11551">
        <ele>48</ele>
        <time>2025-06-17T17:22:53Z</time>
      </trkpt>
      <trkpt lat="47.72269" lon="-0.11632">
        <ele>54</ele>
        <time>2025-06-17T17:23:06Z</time>
      </trkpt>
      <trkpt lat="47.72275" lon="-0.11639">
        <ele>55</ele>
        <time>2025-06-17T17:23:08Z</time>
      </trkpt>
      <trkpt lat="47.72282" lon="-0.11643">
        <ele>56</ele>
        <time>2025-06-17T17:23:09Z</time>
      </trkpt>
      <trkpt lat="47.72292" lon="-0.11641">
        <ele>56</ele>
        <time>2025-06-17T17:23:11Z</time>
      </trkpt>
      <trkpt lat="47.723" lon="-0.11638">
        <ele>57</ele>
        <time>2025-06-17T17:23:12Z</time>
      </trkpt>
      <trkpt lat="47.72306" lon="-0.11639">
        <ele>57</ele>
        <time>2025-06-17T17:23:13Z</time>
      </trkpt>
      <trkpt lat="47.72312" lon="-0.11644">
        <ele>58</ele>
        <time>2025-06-17T17:23:15Z</time>
      </trkpt>
      <trkpt lat="47.72333" lon="-0.11674">
        <ele>60</ele>
        <time>2025-06-17T17:23:20Z</time>
      </trkpt>
      <trkpt lat="47.72355" lon="-0.11668">
        <ele>60</ele>
        <time>2025-06-17T17:23:24Z</time>
      </trkpt>
      <trkpt lat="47.72378" lon="-0.11644">
        <ele>59</ele>
        <time>2025-06-17T17:23:29Z</time>
      </trkpt>
      <trkpt lat="47.72389" lon="-0.11635">
        <ele>58</ele>
        <time>2025-06-17T17:23:31Z</time>
      </trkpt>
      <trkpt lat="47.72424" lon="-0.11622">
        <ele>57</ele>
        <time>2025-06-17T17:23:38Z</time>
      </trkpt>
      <trkpt lat="47.72442" lon="-0.11613">
        <ele>56</ele>
        <time>2025-06-17T17:23:41Z</time>
      </trkpt>
      <trkpt lat="47.72487" lon="-0.11572">
        <ele>52</ele>
        <time>2025-06-17T17:23:50Z</time>
      </trkpt>
      <trkpt lat="47.72523" lon="-0.1153">
        <ele>52</ele>
        <time>2025-06-17T17:23:58Z</time>
      </trkpt>
      <trkpt lat="47.72526" lon="-0.11524">
        <ele>52</ele>
        <time>2025-06-17T17:23:59Z</time>
      </trkpt>
      <trkpt lat="47.72531" lon="-0.11514">
        <ele>52</ele>
        <time>2025-06-17T17:24:01Z</time>
      </trkpt>
      <trkpt lat="47.72534" lon="-0.11497">
        <ele>52</ele>
        <time>2025-06-17T17:24:03Z</time>
      </trkpt>
      <trkpt lat="47.72535" lon="-0.11403">
        <ele>52</ele>
        <time>2025-06-17T17:24:14Z</time>
      </trkpt>
      <trkpt lat="47.72536" lon="-0.1137">
        <ele>51</ele>
        <time>2025-06-17T17:24:18Z</time>
      </trkpt>
      <trkpt lat="47.72524" lon="-0.1124">
        <ele>49</ele>
        <time>2025-06-17T17:24:34Z</time>
      </trkpt>
      <trkpt lat="47.72524" lon="-0.11216">
        <ele>49</ele>
        <time>2025-06-17T17:24:37Z</time>
      </trkpt>
      <trkpt lat="47.72525" lon="-0.11196">
        <ele>50</ele>
        <time>2025-06-17T17:24:39Z</time>
      </trkpt>
      <trkpt lat="47.72533" lon="-0.11164">
        <ele>51</ele>
        <time>2025-06-17T17:24:43Z</time>
      </trkpt>
      <trkpt lat="47.72536" lon="-0.11157">
        <ele>51</ele>
        <time>2025-06-17T17:24:44Z</time>
      </trkpt>
      <trkpt lat="47.72551" lon="-0.11127">
        <ele>52</ele>
        <time>2025-06-17T17:24:49Z</time>
      </trkpt>
      <trkpt lat="47.72587" lon="-0.11067">
        <ele>53</ele>
        <time>2025-06-17T17:24:58Z</time>
      </trkpt>
      <trkpt lat="47.72624" lon="-0.11005">
        <ele>53</ele>
        <time>2025-06-17T17:25:08Z</time>
      </trkpt>
      <trkpt lat="47.72677" lon="-0.10909">
        <ele>54</ele>
        <time>2025-06-17T17:25:23Z</time>
      </trkpt>
      <trkpt lat="47.72735" lon="-0.10795">
        <ele>54</ele>
        <time>2025-06-17T17:25:40Z</time>
      </trkpt>
      <trkpt lat="47.72752" lon="-0.1077">
        <ele>54</ele>
        <time>2025-06-17T17:25:44Z</time>
      </trkpt>
      <trkpt lat="47.72762" lon="-0.10766">
        <ele>54</ele>
        <time>2025-06-17T17:25:46Z</time>
      </trkpt>
      <trkpt lat="47.72771" lon="-0.10767">
        <ele>54</ele>
        <time>2025-06-17T17:25:48Z</time>
      </trkpt>
      <trkpt lat="47.7279" lon="-0.10777">
        <ele>53</ele>
        <time>2025-06-17T17:25:51Z</time>
      </trkpt>
      <trkpt lat="47.7281" lon="-0.10784">
        <ele>52</ele>
        <time>2025-06-17T17:25:55Z</time>
      </trkpt>
      <trkpt lat="47.72816" lon="-0.10784">
        <ele>52</ele>
        <time>2025-06-17T17:25:56Z</time>
      </trkpt>
      <trkpt lat="47.72827" lon="-0.1078">
        <ele>52</ele>
        <time>2025-06-17T17:25:58Z</time>
      </trkpt>
      <trkpt lat="47.7284" lon="-0.10767">
        <ele>51</ele>
        <time>2025-06-17T17:26:01Z</time>
      </trkpt>
      <trkpt lat="47.72851" lon="-0.10744">
        <ele>51</ele>
        <time>2025-06-17T17:26:04Z</time>
      </trkpt>
      <trkpt lat="47.72864" lon="-0.10723">
        <ele>51</ele>
        <time>2025-06-17T17:26:08Z</time>
      </trkpt>
      <trkpt lat="47.72878" lon="-0.10714">
        <ele>52</ele>
        <time>2025-06-17T17:26:10Z</time>
      </trkpt>
      <trkpt lat="47.72904" lon="-0.10714">
        <ele>52</ele>
        <time>2025-06-17T17:26:15Z</time>
      </trkpt>
      <trkpt lat="47.72973" lon="-0.10735">
        <ele>55</ele>
        <time>2025-06-17T17:26:28Z</time>
      </trkpt>
      <trkpt lat="47.73012" lon="-0.10734">
        <ele>58</ele>
        <time>2025-06-17T17:26:35Z</time>
      </trkpt>
      <trkpt lat="47.73162" lon="-0.10697">
        <ele>63</ele>
        <time>2025-06-17T17:27:02Z</time>
      </trkpt>
      <trkpt lat="47.732" lon="-0.10677">
        <ele>63</ele>
        <time>2025-06-17T17:27:09Z</time>
      </trkpt>
      <trkpt lat="47.73247" lon="-0.10647">
        <ele>63</ele>
        <time>2025-06-17T17:27:18Z</time>
      </trkpt>
      <trkpt lat="47.73266" lon="-0.10641">
        <ele>64</ele>
        <time>2025-06-17T17:27:21Z</time>
      </trkpt>
      <trkpt lat="47.73328" lon="-0.1063">
        <ele>65</ele>
        <time>2025-06-17T17:27:32Z</time>
      </trkpt>
      <trkpt lat="47.73372" lon="-0.10626">
        <ele>68</ele>
        <time>2025-06-17T17:27:40Z</time>
      </trkpt>
      <trkpt lat="47.73388" lon="-0.1063">
        <ele>68</ele>
        <time>2025-06-17T17:27:43Z</time>
      </trkpt>
      <trkpt lat="47.73442" lon="-0.10662">
        <ele>71</ele>
        <time>2025-06-17T17:27:54Z</time>
      </trkpt>
      <trkpt lat="47.73481" lon="-0.10674">
        <ele>73</ele>
        <time>2025-06-17T17:28:01Z</time>
      </trkpt>
      <trkpt lat="47.73512" lon="-0.10685">
        <ele>75</ele>
        <time>2025-06-17T17:28:06Z</time>
      </trkpt>
      <trkpt lat="47.73537" lon="-0.10698">
        <ele>77</ele>
        <time>2025-06-17T17:28:11Z</time>
      </trkpt>
      <trkpt lat="47.73592" lon="-0.10756">
        <ele>80</ele>
        <time>2025-06-17T17:28:23Z</time>
      </trkpt>
      <trkpt lat="47.73612" lon="-0.10768">
        <ele>81</ele>
        <time>2025-06-17T17:28:27Z</time>
      </trkpt>
      <trkpt lat="47.7363" lon="-0.10774">
        <ele>82</ele>
        <time>2025-06-17T17:28:30Z</time>
      </trkpt>
      <trkpt lat="47.73654" lon="-0.10775">
        <ele>83</ele>
        <time>2025-06-17T17:28:34Z</time>
      </trkpt>
      <trkpt lat="47.73833" lon="-0.10736">
        <ele>88</ele>
        <time>2025-06-17T17:29:07Z</time>
      </trkpt>
      <trkpt lat="47.73849" lon="-0.10737">
        <ele>89</ele>
        <time>2025-06-17T17:29:09Z</time>
      </trkpt>
      <trkpt lat="47.7386" lon="-0.10733">
        <ele>89</ele>
        <time>2025-06-17T17:29:11Z</time>
      </trkpt>
      <trkpt lat="47.73892" lon="-0.10724">
        <ele>90</ele>
        <time>2025-06-17T17:29:17Z</time>
      </trkpt>
      <trkpt lat="47.73909" lon="-0.10722">
        <ele>90</ele>
        <time>2025-06-17T17:29:20Z</time>
      </trkpt>
      <trkpt lat="47.73925" lon="-0.10724">
        <ele>90</ele>
        <time>2025-06-17T17:29:23Z</time>
      </trkpt>
      <trkpt lat="47.73976" lon="-0.10741">
        <ele>90</ele>
        <time>2025-06-17T17:29:32Z</time>
      </trkpt>
      <trkpt lat="47.73995" lon="-0.10742">
        <ele>90</ele>
        <time>2025-06-17T17:29:36Z</time>
      </trkpt>
      <trkpt lat="47.74051" lon="-0.10735">
        <ele>92</ele>
        <time>2025-06-17T17:29:46Z</time>
      </trkpt>
      <trkpt lat="47.74132" lon="-0.10722">
        <ele>92</ele>
        <time>2025-06-17T17:30:00Z</time>
      </trkpt>
      <trkpt lat="47.74178" lon="-0.10713">
        <ele>91</ele>
        <time>2025-06-17T17:30:09Z</time>
      </trkpt>
      <trkpt lat="47.74254" lon="-0.1069">
        <ele>91</ele>
        <time>2025-06-17T17:30:22Z</time>
      </trkpt>
      <trkpt lat="47.74366" lon="-0.1066">
        <ele>90</ele>
        <time>2025-06-17T17:30:43Z</time>
      </trkpt>
      <trkpt lat="47.74599" lon="-0.10583">
        <ele>89</ele>
        <time>2025-06-17T17:31:25Z</time>
      </trkpt>
      <trkpt lat="47.74698" lon="-0.10543">
        <ele>87</ele>
        <time>2025-06-17T17:31:43Z</time>
      </trkpt>
      <trkpt lat="47.74705" lon="-0.10542">
        <ele>87</ele>
        <time>2025-06-17T17:31:45Z</time>
      </trkpt>
      <trkpt lat="47.74708" lon="-0.10544">
        <ele>87</ele>
        <time>2025-06-17T17:31:45Z</time>
      </trkpt>
      <trkpt lat="47.74693" lon="-0.10562">
        <ele>87</ele>
        <time>2025-06-17T17:31:49Z</time>
      </trkpt>
      <trkpt lat="47.74668" lon="-0.10599">
        <ele>88</ele>
        <time>2025-06-17T17:31:55Z</time>
      </trkpt>
      <trkpt lat="47.74647" lon="-0.10635">
        <ele>88</ele>
        <time>2025-06-17T17:32:01Z</time>
      </trkpt>
      <trkpt lat="47.74565" lon="-0.10749">
        <ele>87</ele>
        <time>2025-06-17T17:32:21Z</time>
      </trkpt>
      <trkpt lat="47.74502" lon="-0.10861">
        <ele>87</ele>
        <time>2025-06-17T17:32:38Z</time>
      </trkpt>
      <trkpt lat="47.74489" lon="-0.10889">
        <ele>87</ele>
        <time>2025-06-17T17:32:42Z</time>
      </trkpt>
      <trkpt lat="47.74461" lon="-0.1093">
        <ele>87</ele>
        <time>2025-06-17T17:32:49Z</time>
      </trkpt>
      <trkpt lat="47.74328" lon="-0.11109">
        <ele>89</ele>
        <time>2025-06-17T17:33:21Z</time>
      </trkpt>
      <trkpt lat="47.74278" lon="-0.11196">
        <ele>90</ele>
        <time>2025-06-17T17:33:35Z</time>
      </trkpt>
      <trkpt lat="47.74405" lon="-0.113">
        <ele>88</ele>
        <time>2025-06-17T17:34:01Z</time>
      </trkpt>
      <trkpt lat="47.74495" lon="-0.11358">
        <ele>91</ele>
        <time>2025-06-17T17:34:18Z</time>
      </trkpt>
      <trkpt lat="47.7456" lon="-0.11393">
        <ele>92</ele>
        <time>2025-06-17T17:34:30Z</time>
      </trkpt>
      <trkpt lat="47.74641" lon="-0.11436">
        <ele>91</ele>
        <time>2025-06-17T17:34:46Z</time>
      </trkpt>
      <trkpt lat="47.74715" lon="-0.11494">
        <ele>89</ele>
        <time>2025-06-17T17:35:00Z</time>
      </trkpt>
      <trkpt lat="47.74754" lon="-0.1152">
        <ele>89</ele>
        <time>2025-06-17T17:35:08Z</time>
      </trkpt>
      <trkpt lat="47.74786" lon="-0.11538">
        <ele>89</ele>
        <time>2025-06-17T17:35:14Z</time>
      </trkpt>
      <trkpt lat="47.74807" lon="-0.11548">
        <ele>89</ele>
        <time>2025-06-17T17:35:18Z</time>
      </trkpt>
      <trkpt lat="47.74823" lon="-0.11548">
        <ele>89</ele>
        <time>2025-06-17T17:35:21Z</time>
      </trkpt>
      <trkpt lat="47.7484" lon="-0.1154">
        <ele>89</ele>
        <time>2025-06-17T17:35:24Z</time>
      </trkpt>
      <trkpt lat="47.74865" lon="-0.11524">
        <ele>89</ele>
        <time>2025-06-17T17:35:29Z</time>
      </trkpt>
      <trkpt lat="47.74883" lon="-0.11521">
        <ele>89</ele>
        <time>2025-06-17T17:35:32Z</time>
      </trkpt>
      <trkpt lat="47.74898" lon="-0.11522">
        <ele>88</ele>
        <time>2025-06-17T17:35:35Z</time>
      </trkpt>
      <trkpt lat="47.74937" lon="-0.11537">
        <ele>88</ele>
        <time>2025-06-17T17:35:42Z</time>
      </trkpt>
      <trkpt lat="47.75001" lon="-0.11567">
        <ele>86</ele>
        <time>2025-06-17T17:35:54Z</time>
      </trkpt>
      <trkpt lat="47.75022" lon="-0.11571">
        <ele>86</ele>
        <time>2025-06-17T17:35:58Z</time>
      </trkpt>
      <trkpt lat="47.75116" lon="-0.1158">
        <ele>85</ele>
        <time>2025-06-17T17:36:14Z</time>
      </trkpt>
      <trkpt lat="47.7517" lon="-0.1158">
        <ele>83</ele>
        <time>2025-06-17T17:36:24Z</time>
      </trkpt>
      <trkpt lat="47.75186" lon="-0.11576">
        <ele>82</ele>
        <time>2025-06-17T17:36:27Z</time>
      </trkpt>
      <trkpt lat="47.75213" lon="-0.1156">
        <ele>82</ele>
        <time>2025-06-17T17:36:32Z</time>
      </trkpt>
      <trkpt lat="47.75231" lon="-0.11553">
        <ele>81</ele>
        <time>2025-06-17T17:36:35Z</time>
      </trkpt>
      <trkpt lat="47.75245" lon="-0.11552">
        <ele>81</ele>
        <time>2025-06-17T17:36:38Z</time>
      </trkpt>
      <trkpt lat="47.75259" lon="-0.11557">
        <ele>80</ele>
        <time>2025-06-17T17:36:40Z</time>
      </trkpt>
      <trkpt lat="47.75333" lon="-0.11631">
        <ele>76</ele>
        <time>2025-06-17T17:36:56Z</time>
      </trkpt>
      <trkpt lat="47.754" lon="-0.11734">
        <ele>74</ele>
        <time>2025-06-17T17:37:13Z</time>
      </trkpt>
      <trkpt lat="47.75443" lon="-0.11809">
        <ele>72</ele>
        <time>2025-06-17T17:37:25Z</time>
      </trkpt>
      <trkpt lat="47.75475" lon="-0.11853">
        <ele>71</ele>
        <time>2025-06-17T17:37:33Z</time>
      </trkpt>
      <trkpt lat="47.75492" lon="-0.11871">
        <ele>70</ele>
        <time>2025-06-17T17:37:37Z</time>
      </trkpt>
      <trkpt lat="47.75541" lon="-0.11907">
        <ele>71</ele>
        <time>2025-06-17T17:37:46Z</time>
      </trkpt>
      <trkpt lat="47.75555" lon="-0.11916">
        <ele>71</ele>
        <time>2025-06-17T17:37:49Z</time>
      </trkpt>
      <trkpt lat="47.75573" lon="-0.11917">
        <ele>72</ele>
        <time>2025-06-17T17:37:52Z</time>
      </trkpt>
      <trkpt lat="47.75586" lon="-0.11916">
        <ele>72</ele>
        <time>2025-06-17T17:37:55Z</time>
      </trkpt>
      <trkpt lat="47.75597" lon="-0.11911">
        <ele>71</ele>
        <time>2025-06-17T17:37:57Z</time>
      </trkpt>
      <trkpt lat="47.75615" lon="-0.11897">
        <ele>71</ele>
        <time>2025-06-17T17:38:00Z</time>
      </trkpt>
      <trkpt lat="47.75627" lon="-0.1188">
        <ele>71</ele>
        <time>2025-06-17T17:38:03Z</time>
      </trkpt>
      <trkpt lat="47.75632" lon="-0.11866">
        <ele>71</ele>
        <time>2025-06-17T17:38:05Z</time>
      </trkpt>
      <trkpt lat="47.75635" lon="-0.11844">
        <ele>71</ele>
        <time>2025-06-17T17:38:08Z</time>
      </trkpt>
      <trkpt lat="47.75638" lon="-0.11801">
        <ele>71</ele>
        <time>2025-06-17T17:38:13Z</time>
      </trkpt>
      <trkpt lat="47.75639" lon="-0.11787">
        <ele>71</ele>
        <time>2025-06-17T17:38:15Z</time>
      </trkpt>
      <trkpt lat="47.75653" lon="-0.11592">
        <ele>72</ele>
        <time>2025-06-17T17:38:38Z</time>
      </trkpt>
      <trkpt lat="47.75665" lon="-0.11512">
        <ele>74</ele>
        <time>2025-06-17T17:38:48Z</time>
      </trkpt>
      <trkpt lat="47.75716" lon="-0.11338">
        <ele>75</ele>
        <time>2025-06-17T17:39:11Z</time>
      </trkpt>
      <trkpt lat="47.75758" lon="-0.11193">
        <ele>76</ele>
        <time>2025-06-17T17:39:30Z</time>
      </trkpt>
      <trkpt lat="47.75798" lon="-0.1105">
        <ele>78</ele>
        <time>2025-06-17T17:39:48Z</time>
      </trkpt>
      <trkpt lat="47.75845" lon="-0.10955">
        <ele>78</ele>
        <time>2025-06-17T17:40:02Z</time>
      </trkpt>
      <trkpt lat="47.75865" lon="-0.10932">
        <ele>78</ele>
        <time>2025-06-17T17:40:07Z</time>
      </trkpt>
      <trkpt lat="47.7596" lon="-0.10806">
        <ele>80</ele>
        <time>2025-06-17T17:40:29Z</time>
      </trkpt>
      <trkpt lat="47.75968" lon="-0.10797">
        <ele>80</ele>
        <time>2025-06-17T17:40:31Z</time>
      </trkpt>
      <trkpt lat="47.75995" lon="-0.10766">
        <ele>81</ele>
        <time>2025-06-17T17:40:37Z</time>
      </trkpt>
      <trkpt lat="47.76052" lon="-0.10716">
        <ele>80</ele>
        <time>2025-06-17T17:40:49Z</time>
      </trkpt>
      <trkpt lat="47.76088" lon="-0.10674">
        <ele>80</ele>
        <time>2025-06-17T17:40:57Z</time>
      </trkpt>
      <trkpt lat="47.76104" lon="-0.10644">
        <ele>80</ele>
        <time>2025-06-17T17:41:02Z</time>
      </trkpt>
      <trkpt lat="47.76127" lon="-0.10564">
        <ele>80</ele>
        <time>2025-06-17T17:41:12Z</time>
      </trkpt>
      <trkpt lat="47.76143" lon="-0.10523">
        <ele>80</ele>
        <time>2025-06-17T17:41:18Z</time>
      </trkpt>
      <trkpt lat="47.76202" lon="-0.10411">
        <ele>80</ele>
        <time>2025-06-17T17:41:35Z</time>
      </trkpt>
      <trkpt lat="47.76218" lon="-0.10371">
        <ele>80</ele>
        <time>2025-06-17T17:41:40Z</time>
      </trkpt>
      <trkpt lat="47.76253" lon="-0.10274">
        <ele>81</ele>
        <time>2025-06-17T17:41:54Z</time>
      </trkpt>
      <trkpt lat="47.76296" lon="-0.10127">
        <ele>82</ele>
        <time>2025-06-17T17:42:13Z</time>
      </trkpt>
      <trkpt lat="47.76316" lon="-0.10063">
        <ele>81</ele>
        <time>2025-06-17T17:42:21Z</time>
      </trkpt>
      <trkpt lat="47.76326" lon="-0.1002">
        <ele>81</ele>
        <time>2025-06-17T17:42:27Z</time>
      </trkpt>
      <trkpt lat="47.76329" lon="-0.09996">
        <ele>81</ele>
        <time>2025-06-17T17:42:30Z</time>
      </trkpt>
      <trkpt lat="47.76381" lon="-0.09989">
        <ele>82</ele>
        <time>2025-06-17T17:42:39Z</time>
      </trkpt>
      <trkpt lat="47.76414" lon="-0.09991">
        <ele>82</ele>
        <time>2025-06-17T17:42:45Z</time>
      </trkpt>
      <trkpt lat="47.76463" lon="-0.09996">
        <ele>82</ele>
        <time>2025-06-17T17:42:53Z</time>
      </trkpt>
      <trkpt lat="47.76477" lon="-0.10001">
        <ele>82</ele>
        <time>2025-06-17T17:42:56Z</time>
      </trkpt>
      <trkpt lat="47.76476" lon="-0.10015">
        <ele>82</ele>
        <time>2025-06-17T17:42:58Z</time>
      </trkpt>
      <trkpt lat="47.76476" lon="-0.10036">
        <ele>82</ele>
        <time>2025-06-17T17:43:00Z</time>
      </trkpt>
      <trkpt lat="47.76478" lon="-0.1005">
        <ele>81</ele>
        <time>2025-06-17T17:43:02Z</time>
      </trkpt>
      <trkpt lat="47.7649" lon="-0.10092">
        <ele>81</ele>
        <time>2025-06-17T17:43:07Z</time>
      </trkpt>
      <trkpt lat="47.7651" lon="-0.10176">
        <ele>80</ele>
        <time>2025-06-17T17:43:18Z</time>
      </trkpt>
      <trkpt lat="47.76528" lon="-0.10234">
        <ele>79</ele>
        <time>2025-06-17T17:43:26Z</time>
      </trkpt>
      <trkpt lat="47.76535" lon="-0.10256">
        <ele>79</ele>
        <time>2025-06-17T17:43:29Z</time>
      </trkpt>
      <trkpt lat="47.76563" lon="-0.10348">
        <ele>79</ele>
        <time>2025-06-17T17:43:41Z</time>
      </trkpt>
      <trkpt lat="47.76575" lon="-0.10394">
        <ele>79</ele>
        <time>2025-06-17T17:43:47Z</time>
      </trkpt>
      <trkpt lat="47.76586" lon="-0.10445">
        <ele>79</ele>
        <time>2025-06-17T17:43:53Z</time>
      </trkpt>
      <trkpt lat="47.76594" lon="-0.10497">
        <ele>78</ele>
        <time>2025-06-17T17:43:59Z</time>
      </trkpt>
      <trkpt lat="47.76645" lon="-0.1088">
        <ele>77</ele>
        <time>2025-06-17T17:44:46Z</time>
      </trkpt>
      <trkpt lat="47.76648" lon="-0.10907">
        <ele>76</ele>
        <time>2025-06-17T17:44:49Z</time>
      </trkpt>
      <trkpt lat="47.76649" lon="-0.10948">
        <ele>75</ele>
        <time>2025-06-17T17:44:54Z</time>
      </trkpt>
      <trkpt lat="47.76647" lon="-0.11297">
        <ele>72</ele>
        <time>2025-06-17T17:45:36Z</time>
      </trkpt>
      <trkpt lat="47.76646" lon="-0.11432">
        <ele>68</ele>
        <time>2025-06-17T17:45:52Z</time>
      </trkpt>
      <trkpt lat="47.76645" lon="-0.11512">
        <ele>66</ele>
        <time>2025-06-17T17:46:02Z</time>
      </trkpt>
      <trkpt lat="47.76644" lon="-0.12012">
        <ele>63</ele>
        <time>2025-06-17T17:47:01Z</time>
      </trkpt>
      <trkpt lat="47.7664" lon="-0.12325">
        <ele>65</ele>
        <time>2025-06-17T17:47:39Z</time>
      </trkpt>
      <trkpt lat="47.7664" lon="-0.12394">
        <ele>66</ele>
        <time>2025-06-17T17:47:47Z</time>
      </trkpt>
      <trkpt lat="47.7664" lon="-0.12413">
        <ele>67</ele>
        <time>2025-06-17T17:47:49Z</time>
      </trkpt>
      <trkpt lat="47.76638" lon="-0.12457">
        <ele>67</ele>
        <time>2025-06-17T17:47:55Z</time>
      </trkpt>
      <trkpt lat="47.76707" lon="-0.12482">
        <ele>71</ele>
        <time>2025-06-17T17:48:07Z</time>
      </trkpt>
      <trkpt lat="47.76995" lon="-0.12614">
        <ele>72</ele>
        <time>2025-06-17T17:49:01Z</time>
      </trkpt>
      <trkpt lat="47.77149" lon="-0.12684">
        <ele>75</ele>
        <time>2025-06-17T17:49:30Z</time>
      </trkpt>
      <trkpt lat="47.77174" lon="-0.12694">
        <ele>76</ele>
        <time>2025-06-17T17:49:34Z</time>
      </trkpt>
      <trkpt lat="47.77199" lon="-0.12696">
        <ele>76</ele>
        <time>2025-06-17T17:49:39Z</time>
      </trkpt>
      <trkpt lat="47.7721" lon="-0.12717">
        <ele>76</ele>
        <time>2025-06-17T17:49:42Z</time>
      </trkpt>
      <trkpt lat="47.77312" lon="-0.12835">
        <ele>73</ele>
        <time>2025-06-17T17:50:05Z</time>
      </trkpt>
      <trkpt lat="47.77479" lon="-0.13013">
        <ele>75</ele>
        <time>2025-06-17T17:50:41Z</time>
      </trkpt>
      <trkpt lat="47.77493" lon="-0.13051">
        <ele>76</ele>
        <time>2025-06-17T17:50:47Z</time>
      </trkpt>
      <trkpt lat="47.7751" lon="-0.13089">
        <ele>76</ele>
        <time>2025-06-17T17:50:52Z</time>
      </trkpt>
      <trkpt lat="47.77593" lon="-0.13317">
        <ele>73</ele>
        <time>2025-06-17T17:51:23Z</time>
      </trkpt>
      <trkpt lat="47.77621" lon="-0.13388">
        <ele>69</ele>
        <time>2025-06-17T17:51:33Z</time>
      </trkpt>
      <trkpt lat="47.77666" lon="-0.13519">
        <ele>63</ele>
        <time>2025-06-17T17:51:50Z</time>
      </trkpt>
      <trkpt lat="47.77672" lon="-0.13531">
        <ele>63</ele>
        <time>2025-06-17T17:51:52Z</time>
      </trkpt>
      <trkpt lat="47.77682" lon="-0.13539">
        <ele>63</ele>
        <time>2025-06-17T17:51:54Z</time>
      </trkpt>
      <trkpt lat="47.77696" lon="-0.13542">
        <ele>63</ele>
        <time>2025-06-17T17:51:57Z</time>
      </trkpt>
      <trkpt lat="47.77761" lon="-0.13524">
        <ele>63</ele>
        <time>2025-06-17T17:52:09Z</time>
      </trkpt>
      <trkpt lat="47.77771" lon="-0.13518">
        <ele>63</ele>
        <time>2025-06-17T17:52:11Z</time>
      </trkpt>
      <trkpt lat="47.77873" lon="-0.13485">
        <ele>64</ele>
        <time>2025-06-17T17:52:29Z</time>
      </trkpt>
      <trkpt lat="47.77893" lon="-0.13484">
        <ele>63</ele>
        <time>2025-06-17T17:52:33Z</time>
      </trkpt>
      <trkpt lat="47.7791" lon="-0.13487">
        <ele>63</ele>
        <time>2025-06-17T17:52:36Z</time>
      </trkpt>
      <trkpt lat="47.77926" lon="-0.13493">
        <ele>63</ele>
        <time>2025-06-17T17:52:39Z</time>
      </trkpt>
      <trkpt lat="47.77981" lon="-0.13523">
        <ele>64</ele>
        <time>2025-06-17T17:52:49Z</time>
      </trkpt>
      <trkpt lat="47.78015" lon="-0.1354">
        <ele>64</ele>
        <time>2025-06-17T17:52:55Z</time>
      </trkpt>
      <trkpt lat="47.78066" lon="-0.13571">
        <ele>64</ele>
        <time>2025-06-17T17:53:05Z</time>
      </trkpt>
      <trkpt lat="47.78192" lon="-0.13648">
        <ele>64</ele>
        <time>2025-06-17T17:53:29Z</time>
      </trkpt>
      <trkpt lat="47.78263" lon="-0.13705">
        <ele>65</ele>
        <time>2025-06-17T17:53:44Z</time>
      </trkpt>
      <trkpt lat="47.78337" lon="-0.13768">
        <ele>64</ele>
        <time>2025-06-17T17:53:59Z</time>
      </trkpt>
      <trkpt lat="47.78372" lon="-0.1379">
        <ele>64</ele>
        <time>2025-06-17T17:54:06Z</time>
      </trkpt>
      <trkpt lat="47.78482" lon="-0.13876">
        <ele>65</ele>
        <time>2025-06-17T17:54:28Z</time>
      </trkpt>
      <trkpt lat="47.786" lon="-0.13954">
        <ele>66</ele>
        <time>2025-06-17T17:54:51Z</time>
      </trkpt>
      <trkpt lat="47.78702" lon="-0.14041">
        <ele>68</ele>
        <time>2025-06-17T17:55:12Z</time>
      </trkpt>
      <trkpt lat="47.7871" lon="-0.14056">
        <ele>68</ele>
        <time>2025-06-17T17:55:14Z</time>
      </trkpt>
      <trkpt lat="47.78721" lon="-0.14044">
        <ele>68</ele>
        <time>2025-06-17T17:55:16Z</time>
      </trkpt>
      <trkpt lat="47.78738" lon="-0.14011">
        <ele>68</ele>
        <time>2025-06-17T17:55:21Z</time>
      </trkpt>
      <trkpt lat="47.78803" lon="-0.13867">
        <ele>68</ele>
        <time>2025-06-17T17:55:42Z</time>
      </trkpt>
      <trkpt lat="47.78868" lon="-0.13768">
        <ele>68</ele>
        <time>2025-06-17T17:55:59Z</time>
      </trkpt>
      <trkpt lat="47.78877" lon="-0.13754">
        <ele>68</ele>
        <time>2025-06-17T17:56:01Z</time>
      </trkpt>
      <trkpt lat="47.78896" lon="-0.13733">
        <ele>68</ele>
        <time>2025-06-17T17:56:05Z</time>
      </trkpt>
      <trkpt lat="47.78932" lon="-0.13701">
        <ele>68</ele>
        <time>2025-06-17T17:56:13Z</time>
      </trkpt>
      <trkpt lat="47.78977" lon="-0.13657">
        <ele>68</ele>
        <time>2025-06-17T17:56:22Z</time>
      </trkpt>
      <trkpt lat="47.7898" lon="-0.13654">
        <ele>68</ele>
        <time>2025-06-17T17:56:23Z</time>
      </trkpt>
      <trkpt lat="47.79033" lon="-0.13572">
        <ele>68</ele>
        <time>2025-06-17T17:56:37Z</time>
      </trkpt>
      <trkpt lat="47.79073" lon="-0.13512">
        <ele>69</ele>
        <time>2025-06-17T17:56:47Z</time>
      </trkpt>
      <trkpt lat="47.79086" lon="-0.13483">
        <ele>70</ele>
        <time>2025-06-17T17:56:51Z</time>
      </trkpt>
      <trkpt lat="47.79098" lon="-0.13439">
        <ele>71</ele>
        <time>2025-06-17T17:56:56Z</time>
      </trkpt>
      <trkpt lat="47.79134" lon="-0.13316">
        <ele>73</ele>
        <time>2025-06-17T17:57:13Z</time>
      </trkpt>
      <trkpt lat="47.7916" lon="-0.13217">
        <ele>70</ele>
        <time>2025-06-17T17:57:25Z</time>
      </trkpt>
      <trkpt lat="47.79169" lon="-0.13176">
        <ele>69</ele>
        <time>2025-06-17T17:57:30Z</time>
      </trkpt>
      <trkpt lat="47.79187" lon="-0.13185">
        <ele>69</ele>
        <time>2025-06-17T17:57:34Z</time>
      </trkpt>
      <trkpt lat="47.79232" lon="-0.13217">
        <ele>68</ele>
        <time>2025-06-17T17:57:43Z</time>
      </trkpt>
      <trkpt lat="47.79349" lon="-0.13292">
        <ele>63</ele>
        <time>2025-06-17T17:58:05Z</time>
      </trkpt>
      <trkpt lat="47.79386" lon="-0.13316">
        <ele>62</ele>
        <time>2025-06-17T17:58:12Z</time>
      </trkpt>
      <trkpt lat="47.7945" lon="-0.13374">
        <ele>61</ele>
        <time>2025-06-17T17:58:26Z</time>
      </trkpt>
      <trkpt lat="47.79477" lon="-0.13386">
        <ele>61</ele>
        <time>2025-06-17T17:58:31Z</time>
      </trkpt>
      <trkpt lat="47.79519" lon="-0.13391">
        <ele>62</ele>
        <time>2025-06-17T17:58:38Z</time>
      </trkpt>
      <trkpt lat="47.79568" lon="-0.13408">
        <ele>64</ele>
        <time>2025-06-17T17:58:47Z</time>
      </trkpt>
      <trkpt lat="47.79614" lon="-0.13426">
        <ele>66</ele>
        <time>2025-06-17T17:58:56Z</time>
      </trkpt>
      <trkpt lat="47.79647" lon="-0.1344">
        <ele>66</ele>
        <time>2025-06-17T17:59:02Z</time>
      </trkpt>
      <trkpt lat="47.79653" lon="-0.13434">
        <ele>66</ele>
        <time>2025-06-17T17:59:03Z</time>
      </trkpt>
      <trkpt lat="47.79662" lon="-0.13417">
        <ele>67</ele>
        <time>2025-06-17T17:59:06Z</time>
      </trkpt>
      <trkpt lat="47.79668" lon="-0.13397">
        <ele>67</ele>
        <time>2025-06-17T17:59:08Z</time>
      </trkpt>
      <trkpt lat="47.79673" lon="-0.13367">
        <ele>66</ele>
        <time>2025-06-17T17:59:12Z</time>
      </trkpt>
      <trkpt lat="47.79677" lon="-0.13324">
        <ele>66</ele>
        <time>2025-06-17T17:59:17Z</time>
      </trkpt>
      <trkpt lat="47.79682" lon="-0.13307">
        <ele>65</ele>
        <time>2025-06-17T17:59:19Z</time>
      </trkpt>
      <trkpt lat="47.79689" lon="-0.13287">
        <ele>65</ele>
        <time>2025-06-17T17:59:22Z</time>
      </trkpt>
      <trkpt lat="47.79707" lon="-0.13244">
        <ele>65</ele>
        <time>2025-06-17T17:59:28Z</time>
      </trkpt>
      <trkpt lat="47.79738" lon="-0.13162">
        <ele>65</ele>
        <time>2025-06-17T17:59:39Z</time>
      </trkpt>
      <trkpt lat="47.79787" lon="-0.1326">
        <ele>66</ele>
        <time>2025-06-17T17:59:54Z</time>
      </trkpt>
      <trkpt lat="47.79816" lon="-0.13322">
        <ele>66</ele>
        <time>2025-06-17T18:00:03Z</time>
      </trkpt>
      <trkpt lat="47.79821" lon="-0.13336">
        <ele>66</ele>
        <time>2025-06-17T18:00:05Z</time>
      </trkpt>
      <trkpt lat="47.7984" lon="-0.13408">
        <ele>67</ele>
        <time>2025-06-17T18:00:14Z</time>
      </trkpt>
      <trkpt lat="47.79862" lon="-0.13471">
        <ele>67</ele>
        <time>2025-06-17T18:00:23Z</time>
      </trkpt>
      <trkpt lat="47.79865" lon="-0.1348">
        <ele>67</ele>
        <time>2025-06-17T18:00:24Z</time>
      </trkpt>
      <trkpt lat="47.79948" lon="-0.13634">
        <ele>66</ele>
        <time>2025-06-17T18:00:47Z</time>
      </trkpt>
      <trkpt lat="47.79978" lon="-0.13683">
        <ele>67</ele>
        <time>2025-06-17T18:00:55Z</time>
      </trkpt>
      <trkpt lat="47.80094" lon="-0.13849">
        <ele>65</ele>
        <time>2025-06-17T18:01:24Z</time>
      </trkpt>
      <trkpt lat="47.80146" lon="-0.1393">
        <ele>63</ele>
        <time>2025-06-17T18:01:37Z</time>
      </trkpt>
      <trkpt lat="47.80242" lon="-0.14135">
        <ele>69</ele>
        <time>2025-06-17T18:02:07Z</time>
      </trkpt>
      <trkpt lat="47.80281" lon="-0.14204">
        <ele>68</ele>
        <time>2025-06-17T18:02:18Z</time>
      </trkpt>
      <trkpt lat="47.8031" lon="-0.14249">
        <ele>68</ele>
        <time>2025-06-17T18:02:26Z</time>
      </trkpt>
      <trkpt lat="47.80359" lon="-0.14319">
        <ele>67</ele>
        <time>2025-06-17T18:02:38Z</time>
      </trkpt>
      <trkpt lat="47.80384" lon="-0.14367">
        <ele>67</ele>
        <time>2025-06-17T18:02:45Z</time>
      </trkpt>
      <trkpt lat="47.80526" lon="-0.14641">
        <ele>67</ele>
        <time>2025-06-17T18:03:26Z</time>
      </trkpt>
      <trkpt lat="47.80632" lon="-0.14845">
        <ele>66</ele>
        <time>2025-06-17T18:03:57Z</time>
      </trkpt>
      <trkpt lat="47.80646" lon="-0.14869">
        <ele>65</ele>
        <time>2025-06-17T18:04:01Z</time>
      </trkpt>
      <trkpt lat="47.80663" lon="-0.14889">
        <ele>65</ele>
        <time>2025-06-17T18:04:05Z</time>
      </trkpt>
      <trkpt lat="47.80807" lon="-0.15023">
        <ele>52</ele>
        <time>2025-06-17T18:04:35Z</time>
      </trkpt>
      <trkpt lat="47.80988" lon="-0.15178">
        <ele>50</ele>
        <time>2025-06-17T18:05:12Z</time>
      </trkpt>
      <trkpt lat="47.81005" lon="-0.15198">
        <ele>50</ele>
        <time>2025-06-17T18:05:16Z</time>
      </trkpt>
      <trkpt lat="47.81048" lon="-0.15275">
        <ele>49</ele>
        <time>2025-06-17T18:05:28Z</time>
      </trkpt>
      <trkpt lat="47.81068" lon="-0.15306">
        <ele>48</ele>
        <time>2025-06-17T18:05:33Z</time>
      </trkpt>
      <trkpt lat="47.81097" lon="-0.15355">
        <ele>47</ele>
        <time>2025-06-17T18:05:41Z</time>
      </trkpt>
      <trkpt lat="47.81179" lon="-0.15456">
        <ele>45</ele>
        <time>2025-06-17T18:06:00Z</time>
      </trkpt>
      <trkpt lat="47.81265" lon="-0.15613">
        <ele>42</ele>
        <time>2025-06-17T18:06:24Z</time>
      </trkpt>
      <trkpt lat="47.81321" lon="-0.1573">
        <ele>41</ele>
        <time>2025-06-17T18:06:41Z</time>
      </trkpt>
      <trkpt lat="47.81347" lon="-0.15782">
        <ele>42</ele>
        <time>2025-06-17T18:06:49Z</time>
      </trkpt>
      <trkpt lat="47.81445" lon="-0.15935">
        <ele>40</ele>
        <time>2025-06-17T18:07:14Z</time>
      </trkpt>
      <trkpt lat="47.81474" lon="-0.1598">
        <ele>38</ele>
        <time>2025-06-17T18:07:22Z</time>
      </trkpt>
      <trkpt lat="47.81597" lon="-0.16176">
        <ele>37</ele>
        <time>2025-06-17T18:07:54Z</time>
      </trkpt>
      <trkpt lat="47.81706" lon="-0.16347">
        <ele>39</ele>
        <time>2025-06-17T18:08:22Z</time>
      </trkpt>
      <trkpt lat="47.81839" lon="-0.16561">
        <ele>39</ele>
        <time>2025-06-17T18:08:57Z</time>
      </trkpt>
      <trkpt lat="47.81901" lon="-0.16659">
        <ele>39</ele>
        <time>2025-06-17T18:09:13Z</time>
      </trkpt>
      <trkpt lat="47.81921" lon="-0.16681">
        <ele>39</ele>
        <time>2025-06-17T18:09:17Z</time>
      </trkpt>
      <trkpt lat="47.81938" lon="-0.16696">
        <ele>39</ele>
        <time>2025-06-17T18:09:21Z</time>
      </trkpt>
      <trkpt lat="47.8199" lon="-0.16737">
        <ele>39</ele>
        <time>2025-06-17T18:09:31Z</time>
      </trkpt>
      <trkpt lat="47.82003" lon="-0.1675">
        <ele>39</ele>
        <time>2025-06-17T18:09:34Z</time>
      </trkpt>
      <trkpt lat="47.82019" lon="-0.16774">
        <ele>38</ele>
        <time>2025-06-17T18:09:38Z</time>
      </trkpt>
      <trkpt lat="47.82113" lon="-0.17026">
        <ele>37</ele>
        <time>2025-06-17T18:10:12Z</time>
      </trkpt>
      <trkpt lat="47.8212" lon="-0.17053">
        <ele>37</ele>
        <time>2025-06-17T18:10:16Z</time>
      </trkpt>
      <trkpt lat="47.82175" lon="-0.17259">
        <ele>36</ele>
        <time>2025-06-17T18:10:42Z</time>
      </trkpt>
      <trkpt lat="47.82176" lon="-0.17298">
        <ele>37</ele>
        <time>2025-06-17T18:10:47Z</time>
      </trkpt>
      <trkpt lat="47.82174" lon="-0.17535">
        <ele>37</ele>
        <time>2025-06-17T18:11:15Z</time>
      </trkpt>
      <trkpt lat="47.8217" lon="-0.17718">
        <ele>39</ele>
        <time>2025-06-17T18:11:37Z</time>
      </trkpt>
      <trkpt lat="47.82175" lon="-0.17757">
        <ele>39</ele>
        <time>2025-06-17T18:11:42Z</time>
      </trkpt>
      <trkpt lat="47.82184" lon="-0.17784">
        <ele>39</ele>
        <time>2025-06-17T18:11:46Z</time>
      </trkpt>
      <trkpt lat="47.82173" lon="-0.17782">
        <ele>39</ele>
        <time>2025-06-17T18:11:48Z</time>
      </trkpt>
      <trkpt lat="47.82164" lon="-0.17776">
        <ele>39</ele>
        <time>2025-06-17T18:11:49Z</time>
      </trkpt>
      <trkpt lat="47.82153" lon="-0.17767">
        <ele>39</ele>
        <time>2025-06-17T18:11:52Z</time>
      </trkpt>
      <trkpt lat="47.82138" lon="-0.17761">
        <ele>39</ele>
        <time>2025-06-17T18:11:54Z</time>
      </trkpt>
      <trkpt lat="47.8208" lon="-0.1775">
        <ele>38</ele>
        <time>2025-06-17T18:12:05Z</time>
      </trkpt>
      <trkpt lat="47.82039" lon="-0.17736">
        <ele>38</ele>
        <time>2025-06-17T18:12:12Z</time>
      </trkpt>
      <trkpt lat="47.82001" lon="-0.17715">
        <ele>39</ele>
        <time>2025-06-17T18:12:19Z</time>
      </trkpt>
      <trkpt lat="47.81968" lon="-0.17691">
        <ele>38</ele>
        <time>2025-06-17T18:12:26Z</time>
      </trkpt>
      <trkpt lat="47.8195" lon="-0.1768">
        <ele>38</ele>
        <time>2025-06-17T18:12:29Z</time>
      </trkpt>
      <trkpt lat="47.81902" lon="-0.17667">
        <ele>38</ele>
        <time>2025-06-17T18:12:38Z</time>
      </trkpt>
      <trkpt lat="47.81894" lon="-0.17666">
        <ele>39</ele>
        <time>2025-06-17T18:12:40Z</time>
      </trkpt>
      <trkpt lat="47.81888" lon="-0.17668">
        <ele>39</ele>
        <time>2025-06-17T18:12:41Z</time>
      </trkpt>
      <trkpt lat="47.81874" lon="-0.17676">
        <ele>39</ele>
        <time>2025-06-17T18:12:43Z</time>
      </trkpt>
      <trkpt lat="47.8186" lon="-0.17681">
        <ele>40</ele>
        <time>2025-06-17T18:12:46Z</time>
      </trkpt>
      <trkpt lat="47.81842" lon="-0.17685">
        <ele>40</ele>
        <time>2025-06-17T18:12:49Z</time>
      </trkpt>
      <trkpt lat="47.81801" lon="-0.17703">
        <ele>41</ele>
        <time>2025-06-17T18:12:57Z</time>
      </trkpt>
      <trkpt lat="47.81779" lon="-0.17707">
        <ele>41</ele>
        <time>2025-06-17T18:13:01Z</time>
      </trkpt>
      <trkpt lat="47.81764" lon="-0.17709">
        <ele>41</ele>
        <time>2025-06-17T18:13:03Z</time>
      </trkpt>
      <trkpt lat="47.8169" lon="-0.17707">
        <ele>39</ele>
        <time>2025-06-17T18:13:16Z</time>
      </trkpt>
      <trkpt lat="47.81657" lon="-0.17711">
        <ele>39</ele>
        <time>2025-06-17T18:13:22Z</time>
      </trkpt>
      <trkpt lat="47.81656" lon="-0.17734">
        <ele>39</ele>
        <time>2025-06-17T18:13:25Z</time>
      </trkpt>
      <trkpt lat="47.81647" lon="-0.17813">
        <ele>40</ele>
        <time>2025-06-17T18:13:35Z</time>
      </trkpt>
      <trkpt lat="47.81643" lon="-0.17864">
        <ele>42</ele>
        <time>2025-06-17T18:13:41Z</time>
      </trkpt>
      <trkpt lat="47.81641" lon="-0.17892">
        <ele>42</ele>
        <time>2025-06-17T18:13:44Z</time>
      </trkpt>
      <trkpt lat="47.81636" lon="-0.17914">
        <ele>43</ele>
        <time>2025-06-17T18:13:47Z</time>
      </trkpt>
      <trkpt lat="47.81627" lon="-0.1794">
        <ele>43</ele>
        <time>2025-06-17T18:13:50Z</time>
      </trkpt>
      <trkpt lat="47.81613" lon="-0.17969">
        <ele>43</ele>
        <time>2025-06-17T18:13:55Z</time>
      </trkpt>
      <trkpt lat="47.81604" lon="-0.18001">
        <ele>42</ele>
        <time>2025-06-17T18:13:59Z</time>
      </trkpt>
      <trkpt lat="47.81571" lon="-0.18155">
        <ele>44</ele>
        <time>2025-06-17T18:14:18Z</time>
      </trkpt>
      <trkpt lat="47.81557" lon="-0.18196">
        <ele>44</ele>
        <time>2025-06-17T18:14:24Z</time>
      </trkpt>
      <trkpt lat="47.8155" lon="-0.18214">
        <ele>45</ele>
        <time>2025-06-17T18:14:26Z</time>
      </trkpt>
      <trkpt lat="47.81544" lon="-0.1823">
        <ele>45</ele>
        <time>2025-06-17T18:14:28Z</time>
      </trkpt>
      <trkpt lat="47.81485" lon="-0.18352">
        <ele>45</ele>
        <time>2025-06-17T18:14:46Z</time>
      </trkpt>
      <trkpt lat="47.81486" lon="-0.18363">
        <ele>45</ele>
        <time>2025-06-17T18:14:48Z</time>
      </trkpt>
      <trkpt lat="47.81491" lon="-0.18369">
        <ele>45</ele>
        <time>2025-06-17T18:14:49Z</time>
      </trkpt>
      <trkpt lat="47.81608" lon="-0.18456">
        <ele>48</ele>
        <time>2025-06-17T18:15:12Z</time>
      </trkpt>
      <trkpt lat="47.81634" lon="-0.18471">
        <ele>48</ele>
        <time>2025-06-17T18:15:17Z</time>
      </trkpt>
      <trkpt lat="47.8167" lon="-0.18486">
        <ele>49</ele>
        <time>2025-06-17T18:15:24Z</time>
      </trkpt>
      <trkpt lat="47.81688" lon="-0.18498">
        <ele>49</ele>
        <time>2025-06-17T18:15:27Z</time>
      </trkpt>
      <trkpt lat="47.81706" lon="-0.18517">
        <ele>50</ele>
        <time>2025-06-17T18:15:31Z</time>
      </trkpt>
      <trkpt lat="47.81748" lon="-0.18582">
        <ele>49</ele>
        <time>2025-06-17T18:15:42Z</time>
      </trkpt>
      <trkpt lat="47.8176" lon="-0.18606">
        <ele>49</ele>
        <time>2025-06-17T18:15:45Z</time>
      </trkpt>
      <trkpt lat="47.81794" lon="-0.18728">
        <ele>49</ele>
        <time>2025-06-17T18:16:01Z</time>
      </trkpt>
      <trkpt lat="47.81817" lon="-0.18796">
        <ele>50</ele>
        <time>2025-06-17T18:16:10Z</time>
      </trkpt>
      <trkpt lat="47.8182" lon="-0.1882">
        <ele>50</ele>
        <time>2025-06-17T18:16:13Z</time>
      </trkpt>
      <trkpt lat="47.81821" lon="-0.18855">
        <ele>50</ele>
        <time>2025-06-17T18:16:17Z</time>
      </trkpt>
      <trkpt lat="47.81824" lon="-0.18881">
        <ele>50</ele>
        <time>2025-06-17T18:16:21Z</time>
      </trkpt>
      <trkpt lat="47.81841" lon="-0.18937">
        <ele>50</ele>
        <time>2025-06-17T18:16:28Z</time>
      </trkpt>
      <trkpt lat="47.81848" lon="-0.18976">
        <ele>50</ele>
        <time>2025-06-17T18:16:33Z</time>
      </trkpt>
      <trkpt lat="47.81854" lon="-0.19035">
        <ele>51</ele>
        <time>2025-06-17T18:16:40Z</time>
      </trkpt>
      <trkpt lat="47.81856" lon="-0.19066">
        <ele>51</ele>
        <time>2025-06-17T18:16:44Z</time>
      </trkpt>
      <trkpt lat="47.81905" lon="-0.1906">
        <ele>52</ele>
        <time>2025-06-17T18:16:52Z</time>
      </trkpt>
      <trkpt lat="47.8193" lon="-0.1906">
        <ele>53</ele>
        <time>2025-06-17T18:16:57Z</time>
      </trkpt>
      <trkpt lat="47.82053" lon="-0.19077">
        <ele>49</ele>
        <time>2025-06-17T18:17:19Z</time>
      </trkpt>
      <trkpt lat="47.82071" lon="-0.19082">
        <ele>47</ele>
        <time>2025-06-17T18:17:22Z</time>
      </trkpt>
      <trkpt lat="47.82084" lon="-0.19088">
        <ele>46</ele>
        <time>2025-06-17T18:17:24Z</time>
      </trkpt>
      <trkpt lat="47.82179" lon="-0.19151">
        <ele>45</ele>
        <time>2025-06-17T18:17:43Z</time>
      </trkpt>
      <trkpt lat="47.82194" lon="-0.19159">
        <ele>45</ele>
        <time>2025-06-17T18:17:46Z</time>
      </trkpt>
      <trkpt lat="47.82212" lon="-0.19164">
        <ele>44</ele>
        <time>2025-06-17T18:17:49Z</time>
      </trkpt>
      <trkpt lat="47.82215" lon="-0.19164">
        <ele>44</ele>
        <time>2025-06-17T18:17:50Z</time>
      </trkpt>
      <trkpt lat="47.82234" lon="-0.19164">
        <ele>44</ele>
        <time>2025-06-17T18:17:53Z</time>
      </trkpt>
      <trkpt lat="47.82265" lon="-0.19158">
        <ele>44</ele>
        <time>2025-06-17T18:17:59Z</time>
      </trkpt>
      <trkpt lat="47.82457" lon="-0.19091">
        <ele>39</ele>
        <time>2025-06-17T18:18:34Z</time>
      </trkpt>
      <trkpt lat="47.82513" lon="-0.19067">
        <ele>38</ele>
        <time>2025-06-17T18:18:44Z</time>
      </trkpt>
      <trkpt lat="47.82581" lon="-0.19046">
        <ele>38</ele>
        <time>2025-06-17T18:18:56Z</time>
      </trkpt>
      <trkpt lat="47.82599" lon="-0.19046">
        <ele>38</ele>
        <time>2025-06-17T18:19:00Z</time>
      </trkpt>
      <trkpt lat="47.82621" lon="-0.19051">
        <ele>38</ele>
        <time>2025-06-17T18:19:04Z</time>
      </trkpt>
      <trkpt lat="47.82626" lon="-0.19054">
        <ele>38</ele>
        <time>2025-06-17T18:19:04Z</time>
      </trkpt>
      <trkpt lat="47.82636" lon="-0.1906">
        <ele>38</ele>
        <time>2025-06-17T18:19:06Z</time>
      </trkpt>
      <trkpt lat="47.82671" lon="-0.19087">
        <ele>39</ele>
        <time>2025-06-17T18:19:13Z</time>
      </trkpt>
      <trkpt lat="47.82713" lon="-0.19113">
        <ele>39</ele>
        <time>2025-06-17T18:19:21Z</time>
      </trkpt>
      <trkpt lat="47.82858" lon="-0.19193">
        <ele>39</ele>
        <time>2025-06-17T18:19:49Z</time>
      </trkpt>
      <trkpt lat="47.83122" lon="-0.19314">
        <ele>41</ele>
        <time>2025-06-17T18:20:38Z</time>
      </trkpt>
      <trkpt lat="47.83128" lon="-0.19312">
        <ele>40</ele>
        <time>2025-06-17T18:20:39Z</time>
      </trkpt>
      <trkpt lat="47.8313" lon="-0.19309">
        <ele>40</ele>
        <time>2025-06-17T18:20:40Z</time>
      </trkpt>
      <trkpt lat="47.83143" lon="-0.19328">
        <ele>41</ele>
        <time>2025-06-17T18:20:43Z</time>
      </trkpt>
      <trkpt lat="47.83169" lon="-0.19361">
        <ele>42</ele>
        <time>2025-06-17T18:20:49Z</time>
      </trkpt>
      <trkpt lat="47.83225" lon="-0.19415">
        <ele>41</ele>
        <time>2025-06-17T18:21:01Z</time>
      </trkpt>
      <trkpt lat="47.83343" lon="-0.19513">
        <ele>39</ele>
        <time>2025-06-17T18:21:25Z</time>
      </trkpt>
      <trkpt lat="47.83389" lon="-0.19546">
        <ele>39</ele>
        <time>2025-06-17T18:21:34Z</time>
      </trkpt>
      <trkpt lat="47.83434" lon="-0.19574">
        <ele>40</ele>
        <time>2025-06-17T18:21:43Z</time>
      </trkpt>
      <trkpt lat="47.83503" lon="-0.19612">
        <ele>40</ele>
        <time>2025-06-17T18:21:56Z</time>
      </trkpt>
      <trkpt lat="47.83522" lon="-0.19621">
        <ele>40</ele>
        <time>2025-06-17T18:21:59Z</time>
      </trkpt>
      <trkpt lat="47.83532" lon="-0.19629">
        <ele>40</ele>
        <time>2025-06-17T18:22:01Z</time>
      </trkpt>
      <trkpt lat="47.83537" lon="-0.19638">
        <ele>41</ele>
        <time>2025-06-17T18:22:03Z</time>
      </trkpt>
      <trkpt lat="47.8354" lon="-0.19643">
        <ele>41</ele>
        <time>2025-06-17T18:22:04Z</time>
      </trkpt>
      <trkpt lat="47.83546" lon="-0.19638">
        <ele>40</ele>
        <time>2025-06-17T18:22:05Z</time>
      </trkpt>
      <trkpt lat="47.8355" lon="-0.19638">
        <ele>40</ele>
        <time>2025-06-17T18:22:06Z</time>
      </trkpt>
      <trkpt lat="47.83554" lon="-0.19641">
        <ele>40</ele>
        <time>2025-06-17T18:22:06Z</time>
      </trkpt>
      <trkpt lat="47.83556" lon="-0.19635">
        <ele>40</ele>
        <time>2025-06-17T18:22:07Z</time>
      </trkpt>
      <trkpt lat="47.83559" lon="-0.19631">
        <ele>39</ele>
        <time>2025-06-17T18:22:08Z</time>
      </trkpt>
      <trkpt lat="47.83578" lon="-0.19638">
        <ele>39</ele>
        <time>2025-06-17T18:22:11Z</time>
      </trkpt>
      <trkpt lat="47.83732" lon="-0.19689">
        <ele>38</ele>
        <time>2025-06-17T18:22:39Z</time>
      </trkpt>
      <trkpt lat="47.83807" lon="-0.19713">
        <ele>38</ele>
        <time>2025-06-17T18:22:53Z</time>
      </trkpt>
      <trkpt lat="47.83826" lon="-0.19719">
        <ele>38</ele>
        <time>2025-06-17T18:22:56Z</time>
      </trkpt>
      <trkpt lat="47.83898" lon="-0.19744">
        <ele>38</ele>
        <time>2025-06-17T18:23:10Z</time>
      </trkpt>
      <trkpt lat="47.83906" lon="-0.19749">
        <ele>38</ele>
        <time>2025-06-17T18:23:11Z</time>
      </trkpt>
      <trkpt lat="47.83923" lon="-0.19764">
        <ele>39</ele>
        <time>2025-06-17T18:23:15Z</time>
      </trkpt>
      <trkpt lat="47.83926" lon="-0.19759">
        <ele>39</ele>
        <time>2025-06-17T18:23:16Z</time>
      </trkpt>
      <trkpt lat="47.83938" lon="-0.19757">
        <ele>38</ele>
        <time>2025-06-17T18:23:18Z</time>
      </trkpt>
      <trkpt lat="47.83968" lon="-0.19765">
        <ele>38</ele>
        <time>2025-06-17T18:23:23Z</time>
      </trkpt>
      <trkpt lat="47.84057" lon="-0.19807">
        <ele>37</ele>
        <time>2025-06-17T18:23:40Z</time>
      </trkpt>
      <trkpt lat="47.84083" lon="-0.19815">
        <ele>37</ele>
        <time>2025-06-17T18:23:44Z</time>
      </trkpt>
      <trkpt lat="47.84107" lon="-0.19829">
        <ele>37</ele>
        <time>2025-06-17T18:23:49Z</time>
      </trkpt>
      <trkpt lat="47.84115" lon="-0.19832">
        <ele>37</ele>
        <time>2025-06-17T18:23:50Z</time>
      </trkpt>
      <trkpt lat="47.84152" lon="-0.19846">
        <ele>38</ele>
        <time>2025-06-17T18:23:57Z</time>
      </trkpt>
      <trkpt lat="47.84185" lon="-0.19858">
        <ele>38</ele>
        <time>2025-06-17T18:24:03Z</time>
      </trkpt>
      <trkpt lat="47.84211" lon="-0.1986">
        <ele>38</ele>
        <time>2025-06-17T18:24:08Z</time>
      </trkpt>
      <trkpt lat="47.84253" lon="-0.1987">
        <ele>39</ele>
        <time>2025-06-17T18:24:15Z</time>
      </trkpt>
      <trkpt lat="47.84285" lon="-0.19852">
        <ele>38</ele>
        <time>2025-06-17T18:24:22Z</time>
      </trkpt>
      <trkpt lat="47.84302" lon="-0.19856">
        <ele>39</ele>
        <time>2025-06-17T18:24:25Z</time>
      </trkpt>
      <trkpt lat="47.84333" lon="-0.1986">
        <ele>39</ele>
        <time>2025-06-17T18:24:30Z</time>
      </trkpt>
      <trkpt lat="47.84353" lon="-0.19862">
        <ele>39</ele>
        <time>2025-06-17T18:24:34Z</time>
      </trkpt>
      <trkpt lat="47.84395" lon="-0.19877">
        <ele>40</ele>
        <time>2025-06-17T18:24:41Z</time>
      </trkpt>
      <trkpt lat="47.84398" lon="-0.19877">
        <ele>40</ele>
        <time>2025-06-17T18:24:42Z</time>
      </trkpt>
      <trkpt lat="47.84401" lon="-0.19875">
        <ele>40</ele>
        <time>2025-06-17T18:24:43Z</time>
      </trkpt>
      <trkpt lat="47.84451" lon="-0.19872">
        <ele>39</ele>
        <time>2025-06-17T18:24:51Z</time>
      </trkpt>
      <trkpt lat="47.8445" lon="-0.19799">
        <ele>36</ele>
        <time>2025-06-17T18:25:00Z</time>
      </trkpt>
      <trkpt lat="47.84448" lon="-0.19702">
        <ele>32</ele>
        <time>2025-06-17T18:25:12Z</time>
      </trkpt>
      <trkpt lat="47.84448" lon="-0.1969">
        <ele>32</ele>
        <time>2025-06-17T18:25:13Z</time>
      </trkpt>
      <trkpt lat="47.84444" lon="-0.19534">
        <ele>30</ele>
        <time>2025-06-17T18:25:32Z</time>
      </trkpt>
      <trkpt lat="47.84442" lon="-0.19492">
        <ele>31</ele>
        <time>2025-06-17T18:25:37Z</time>
      </trkpt>
      <trkpt lat="47.84441" lon="-0.19418">
        <ele>32</ele>
        <time>2025-06-17T18:25:46Z</time>
      </trkpt>
      <trkpt lat="47.84441" lon="-0.194">
        <ele>33</ele>
        <time>2025-06-17T18:25:48Z</time>
      </trkpt>
      <trkpt lat="47.84441" lon="-0.19324">
        <ele>37</ele>
        <time>2025-06-17T18:25:57Z</time>
      </trkpt>
      <trkpt lat="47.8444" lon="-0.19222">
        <ele>42</ele>
        <time>2025-06-17T18:26:09Z</time>
      </trkpt>
      <trkpt lat="47.84479" lon="-0.1922">
        <ele>39</ele>
        <time>2025-06-17T18:26:16Z</time>
      </trkpt>
      <trkpt lat="47.84491" lon="-0.19227">
        <ele>37</ele>
        <time>2025-06-17T18:26:18Z</time>
      </trkpt>
      <trkpt lat="47.84507" lon="-0.19243">
        <ele>35</ele>
        <time>2025-06-17T18:26:22Z</time>
      </trkpt>
      <trkpt lat="47.84524" lon="-0.19268">
        <ele>35</ele>
        <time>2025-06-17T18:26:26Z</time>
      </trkpt>
      <trkpt lat="47.84535" lon="-0.1929">
        <ele>35</ele>
        <time>2025-06-17T18:26:29Z</time>
      </trkpt>
      <trkpt lat="47.84544" lon="-0.19306">
        <ele>35</ele>
        <time>2025-06-17T18:26:32Z</time>
      </trkpt>
      <trkpt lat="47.8456" lon="-0.19332">
        <ele>35</ele>
        <time>2025-06-17T18:26:36Z</time>
      </trkpt>
      <trkpt lat="47.8458" lon="-0.19355">
        <ele>34</ele>
        <time>2025-06-17T18:26:41Z</time>
      </trkpt>
      <trkpt lat="47.84604" lon="-0.19374">
        <ele>34</ele>
        <time>2025-06-17T18:26:45Z</time>
      </trkpt>
      <trkpt lat="47.84621" lon="-0.19384">
        <ele>33</ele>
        <time>2025-06-17T18:26:49Z</time>
      </trkpt>
      <trkpt lat="47.84646" lon="-0.19392">
        <ele>33</ele>
        <time>2025-06-17T18:26:53Z</time>
      </trkpt>
      <trkpt lat="47.84672" lon="-0.19391">
        <ele>34</ele>
        <time>2025-06-17T18:26:58Z</time>
      </trkpt>
      <trkpt lat="47.84813" lon="-0.19377">
        <ele>34</ele>
        <time>2025-06-17T18:27:23Z</time>
      </trkpt>
      <trkpt lat="47.84871" lon="-0.19375">
        <ele>34</ele>
        <time>2025-06-17T18:27:33Z</time>
      </trkpt>
      <trkpt lat="47.85008" lon="-0.19382">
        <ele>34</ele>
        <time>2025-06-17T18:27:58Z</time>
      </trkpt>
      <trkpt lat="47.85078" lon="-0.1939">
        <ele>33</ele>
        <time>2025-06-17T18:28:10Z</time>
      </trkpt>
      <trkpt lat="47.85103" lon="-0.19391">
        <ele>33</ele>
        <time>2025-06-17T18:28:15Z</time>
      </trkpt>
      <trkpt lat="47.85117" lon="-0.19388">
        <ele>33</ele>
        <time>2025-06-17T18:28:17Z</time>
      </trkpt>
      <trkpt lat="47.85138" lon="-0.19377">
        <ele>34</ele>
        <time>2025-06-17T18:28:21Z</time>
      </trkpt>
      <trkpt lat="47.85196" lon="-0.19338">
        <ele>36</ele>
        <time>2025-06-17T18:28:32Z</time>
      </trkpt>
      <trkpt lat="47.85217" lon="-0.19335">
        <ele>36</ele>
        <time>2025-06-17T18:28:36Z</time>
      </trkpt>
      <trkpt lat="47.8522" lon="-0.19335">
        <ele>36</ele>
        <time>2025-06-17T18:28:37Z</time>
      </trkpt>
      <trkpt lat="47.85239" lon="-0.19337">
        <ele>37</ele>
        <time>2025-06-17T18:28:40Z</time>
      </trkpt>
      <trkpt lat="47.85322" lon="-0.19356">
        <ele>37</ele>
        <time>2025-06-17T18:28:55Z</time>
      </trkpt>
      <trkpt lat="47.85434" lon="-0.19376">
        <ele>37</ele>
        <time>2025-06-17T18:29:15Z</time>
      </trkpt>
      <trkpt lat="47.85457" lon="-0.19385">
        <ele>37</ele>
        <time>2025-06-17T18:29:19Z</time>
      </trkpt>
      <trkpt lat="47.85482" lon="-0.19404">
        <ele>37</ele>
        <time>2025-06-17T18:29:24Z</time>
      </trkpt>
      <trkpt lat="47.85528" lon="-0.19447">
        <ele>35</ele>
        <time>2025-06-17T18:29:34Z</time>
      </trkpt>
      <trkpt lat="47.85582" lon="-0.19494">
        <ele>34</ele>
        <time>2025-06-17T18:29:45Z</time>
      </trkpt>
      <trkpt lat="47.85658" lon="-0.19537">
        <ele>32</ele>
        <time>2025-06-17T18:30:00Z</time>
      </trkpt>
      <trkpt lat="47.85676" lon="-0.19548">
        <ele>32</ele>
        <time>2025-06-17T18:30:03Z</time>
      </trkpt>
      <trkpt lat="47.85748" lon="-0.19595">
        <ele>31</ele>
        <time>2025-06-17T18:30:17Z</time>
      </trkpt>
      <trkpt lat="47.8587" lon="-0.19659">
        <ele>31</ele>
        <time>2025-06-17T18:30:40Z</time>
      </trkpt>
      <trkpt lat="47.85967" lon="-0.19713">
        <ele>33</ele>
        <time>2025-06-17T18:30:58Z</time>
      </trkpt>
      <trkpt lat="47.8606" lon="-0.19776">
        <ele>32</ele>
        <time>2025-06-17T18:31:17Z</time>
      </trkpt>
      <trkpt lat="47.86091" lon="-0.198">
        <ele>32</ele>
        <time>2025-06-17T18:31:23Z</time>
      </trkpt>
      <trkpt lat="47.8617" lon="-0.19867">
        <ele>33</ele>
        <time>2025-06-17T18:31:39Z</time>
      </trkpt>
      <trkpt lat="47.86171" lon="-0.19864">
        <ele>33</ele>
        <time>2025-06-17T18:31:39Z</time>
      </trkpt>
      <trkpt lat="47.86168" lon="-0.1985">
        <ele>33</ele>
        <time>2025-06-17T18:31:41Z</time>
      </trkpt>
      <trkpt lat="47.86156" lon="-0.19828">
        <ele>34</ele>
        <time>2025-06-17T18:31:45Z</time>
      </trkpt>
      <trkpt lat="47.86153" lon="-0.19816">
        <ele>35</ele>
        <time>2025-06-17T18:31:46Z</time>
      </trkpt>
      <trkpt lat="47.86153" lon="-0.19803">
        <ele>35</ele>
        <time>2025-06-17T18:31:48Z</time>
      </trkpt>
      <trkpt lat="47.86156" lon="-0.19794">
        <ele>36</ele>
        <time>2025-06-17T18:31:49Z</time>
      </trkpt>
      <trkpt lat="47.86163" lon="-0.19783">
        <ele>37</ele>
        <time>2025-06-17T18:31:51Z</time>
      </trkpt>
      <trkpt lat="47.86173" lon="-0.19768">
        <ele>39</ele>
        <time>2025-06-17T18:31:53Z</time>
      </trkpt>
      <trkpt lat="47.86279" lon="-0.19638">
        <ele>54</ele>
        <time>2025-06-17T18:32:18Z</time>
      </trkpt>
      <trkpt lat="47.863" lon="-0.19619">
        <ele>55</ele>
        <time>2025-06-17T18:32:22Z</time>
      </trkpt>
      <trkpt lat="47.86348" lon="-0.19578">
        <ele>57</ele>
        <time>2025-06-17T18:32:32Z</time>
      </trkpt>
      <trkpt lat="47.86375" lon="-0.19553">
        <ele>57</ele>
        <time>2025-06-17T18:32:37Z</time>
      </trkpt>
      <trkpt lat="47.86422" lon="-0.19511">
        <ele>57</ele>
        <time>2025-06-17T18:32:47Z</time>
      </trkpt>
      <trkpt lat="47.86501" lon="-0.19442">
        <ele>57</ele>
        <time>2025-06-17T18:33:03Z</time>
      </trkpt>
      <trkpt lat="47.86504" lon="-0.19441">
        <ele>57</ele>
        <time>2025-06-17T18:33:04Z</time>
      </trkpt>
      <trkpt lat="47.86502" lon="-0.19527">
        <ele>56</ele>
        <time>2025-06-17T18:33:14Z</time>
      </trkpt>
      <trkpt lat="47.86504" lon="-0.19579">
        <ele>57</ele>
        <time>2025-06-17T18:33:21Z</time>
      </trkpt>
      <trkpt lat="47.8652" lon="-0.19573">
        <ele>56</ele>
        <time>2025-06-17T18:33:23Z</time>
      </trkpt>
      <trkpt lat="47.86504" lon="-0.19579">
        <ele>57</ele>
        <time>2025-06-17T18:33:26Z</time>
      </trkpt>
      <trkpt lat="47.86508" lon="-0.19607">
        <ele>57</ele>
        <time>2025-06-17T18:33:30Z</time>
      </trkpt>
      <trkpt lat="47.8651" lon="-0.19626">
        <ele>56</ele>
        <time>2025-06-17T18:33:32Z</time>
      </trkpt>
      <trkpt lat="47.86525" lon="-0.19691">
        <ele>55</ele>
        <time>2025-06-17T18:33:40Z</time>
      </trkpt>
      <trkpt lat="47.8654" lon="-0.19768">
        <ele>53</ele>
        <time>2025-06-17T18:33:50Z</time>
      </trkpt>
      <trkpt lat="47.86544" lon="-0.19806">
        <ele>52</ele>
        <time>2025-06-17T18:33:54Z</time>
      </trkpt>
      <trkpt lat="47.86548" lon="-0.19899">
        <ele>49</ele>
        <time>2025-06-17T18:34:06Z</time>
      </trkpt>
      <trkpt lat="47.86549" lon="-0.19978">
        <ele>50</ele>
        <time>2025-06-17T18:34:15Z</time>
      </trkpt>
      <trkpt lat="47.86551" lon="-0.2004">
        <ele>51</ele>
        <time>2025-06-17T18:34:22Z</time>
      </trkpt>
      <trkpt lat="47.86559" lon="-0.20091">
        <ele>53</ele>
        <time>2025-06-17T18:34:29Z</time>
      </trkpt>
      <trkpt lat="47.86586" lon="-0.20171">
        <ele>53</ele>
        <time>2025-06-17T18:34:39Z</time>
      </trkpt>
      <trkpt lat="47.86637" lon="-0.20307">
        <ele>55</ele>
        <time>2025-06-17T18:34:58Z</time>
      </trkpt>
      <trkpt lat="47.86646" lon="-0.20332">
        <ele>55</ele>
        <time>2025-06-17T18:35:01Z</time>
      </trkpt>
      <trkpt lat="47.86678" lon="-0.20412">
        <ele>53</ele>
        <time>2025-06-17T18:35:12Z</time>
      </trkpt>
      <trkpt lat="47.86651" lon="-0.20443">
        <ele>52</ele>
        <time>2025-06-17T18:35:19Z</time>
      </trkpt>
      <trkpt lat="47.86638" lon="-0.2046">
        <ele>50</ele>
        <time>2025-06-17T18:35:22Z</time>
      </trkpt>
      <trkpt lat="47.86632" lon="-0.20469">
        <ele>50</ele>
        <time>2025-06-17T18:35:23Z</time>
      </trkpt>
      <trkpt lat="47.86625" lon="-0.20485">
        <ele>48</ele>
        <time>2025-06-17T18:35:25Z</time>
      </trkpt>
      <trkpt lat="47.86622" lon="-0.20497">
        <ele>47</ele>
        <time>2025-06-17T18:35:27Z</time>
      </trkpt>
      <trkpt lat="47.86622" lon="-0.20502">
        <ele>47</ele>
        <time>2025-06-17T18:35:28Z</time>
      </trkpt>
      <trkpt lat="47.86622" lon="-0.20515">
        <ele>46</ele>
        <time>2025-06-17T18:35:29Z</time>
      </trkpt>
      <trkpt lat="47.86628" lon="-0.20545">
        <ele>46</ele>
        <time>2025-06-17T18:35:33Z</time>
      </trkpt>
      <trkpt lat="47.86633" lon="-0.20569">
        <ele>45</ele>
        <time>2025-06-17T18:35:36Z</time>
      </trkpt>
      <trkpt lat="47.86633" lon="-0.20584">
        <ele>45</ele>
        <time>2025-06-17T18:35:38Z</time>
      </trkpt>
      <trkpt lat="47.86619" lon="-0.20649">
        <ele>39</ele>
        <time>2025-06-17T18:35:46Z</time>
      </trkpt>
      <trkpt lat="47.86618" lon="-0.20653">
        <ele>39</ele>
        <time>2025-06-17T18:35:46Z</time>
      </trkpt>
      <trkpt lat="47.86618" lon="-0.20665">
        <ele>38</ele>
        <time>2025-06-17T18:35:48Z</time>
      </trkpt>
      <trkpt lat="47.86625" lon="-0.20708">
        <ele>36</ele>
        <time>2025-06-17T18:35:53Z</time>
      </trkpt>
      <trkpt lat="47.86629" lon="-0.2072">
        <ele>36</ele>
        <time>2025-06-17T18:35:55Z</time>
      </trkpt>
      <trkpt lat="47.86641" lon="-0.20731">
        <ele>36</ele>
        <time>2025-06-17T18:35:57Z</time>
      </trkpt>
      <trkpt lat="47.86651" lon="-0.2074">
        <ele>36</ele>
        <time>2025-06-17T18:35:59Z</time>
      </trkpt>
      <trkpt lat="47.86682" lon="-0.20783">
        <ele>35</ele>
        <time>2025-06-17T18:36:07Z</time>
      </trkpt>
      <trkpt lat="47.8669" lon="-0.20794">
        <ele>35</ele>
        <time>2025-06-17T18:36:09Z</time>
      </trkpt>
      <trkpt lat="47.867" lon="-0.20814">
        <ele>35</ele>
        <time>2025-06-17T18:36:12Z</time>
      </trkpt>
      <trkpt lat="47.86705" lon="-0.20823">
        <ele>34</ele>
        <time>2025-06-17T18:36:13Z</time>
      </trkpt>
      <trkpt lat="47.86705" lon="-0.2083">
        <ele>34</ele>
        <time>2025-06-17T18:36:14Z</time>
      </trkpt>
      <trkpt lat="47.86705" lon="-0.2083">
        <ele>34</ele>
        <time>2025-06-17T18:36:40Z</time>
      </trkpt>
      <trkpt lat="47.86727" lon="-0.20852">
        <ele>34</ele>
        <time>2025-06-17T18:36:44Z</time>
      </trkpt>
      <trkpt lat="47.86764" lon="-0.20915">
        <ele>33</ele>
        <time>2025-06-17T18:36:54Z</time>
      </trkpt>
      <trkpt lat="47.86795" lon="-0.20963">
        <ele>32</ele>
        <time>2025-06-17T18:37:02Z</time>
      </trkpt>
      <trkpt lat="47.86791" lon="-0.20976">
        <ele>31</ele>
        <time>2025-06-17T18:37:04Z</time>
      </trkpt>
      <trkpt lat="47.86777" lon="-0.20992">
        <ele>30</ele>
        <time>2025-06-17T18:37:07Z</time>
      </trkpt>
      <trkpt lat="47.86771" lon="-0.21">
        <ele>30</ele>
        <time>2025-06-17T18:37:08Z</time>
      </trkpt>
      <trkpt lat="47.86767" lon="-0.21005">
        <ele>30</ele>
        <time>2025-06-17T18:37:09Z</time>
      </trkpt>
      <trkpt lat="47.86762" lon="-0.21011">
        <ele>30</ele>
        <time>2025-06-17T18:37:11Z</time>
      </trkpt>
      <trkpt lat="47.86742" lon="-0.2104">
        <ele>31</ele>
        <time>2025-06-17T18:37:15Z</time>
      </trkpt>
      <trkpt lat="47.86739" lon="-0.21048">
        <ele>31</ele>
        <time>2025-06-17T18:37:17Z</time>
      </trkpt>
      <trkpt lat="47.86738" lon="-0.21055">
        <ele>31</ele>
        <time>2025-06-17T18:37:17Z</time>
      </trkpt>
      <trkpt lat="47.86739" lon="-0.21064">
        <ele>31</ele>
        <time>2025-06-17T18:37:19Z</time>
      </trkpt>
      <trkpt lat="47.86744" lon="-0.21073">
        <ele>31</ele>
        <time>2025-06-17T18:37:20Z</time>
      </trkpt>
      <trkpt lat="47.8678" lon="-0.21123">
        <ele>34</ele>
        <time>2025-06-17T18:37:29Z</time>
      </trkpt>
      <trkpt lat="47.86811" lon="-0.21153">
        <ele>35</ele>
        <time>2025-06-17T18:37:35Z</time>
      </trkpt>
      <trkpt lat="47.86833" lon="-0.21164">
        <ele>35</ele>
        <time>2025-06-17T18:37:39Z</time>
      </trkpt>
      <trkpt lat="47.86854" lon="-0.21167">
        <ele>35</ele>
        <time>2025-06-17T18:37:43Z</time>
      </trkpt>
      <trkpt lat="47.86928" lon="-0.21167">
        <ele>35</ele>
        <time>2025-06-17T18:37:56Z</time>
      </trkpt>
      <trkpt lat="47.86949" lon="-0.21163">
        <ele>36</ele>
        <time>2025-06-17T18:38:00Z</time>
      </trkpt>
      <trkpt lat="47.86968" lon="-0.21151">
        <ele>36</ele>
        <time>2025-06-17T18:38:04Z</time>
      </trkpt>
      <trkpt lat="47.86991" lon="-0.21133">
        <ele>35</ele>
        <time>2025-06-17T18:38:08Z</time>
      </trkpt>
      <trkpt lat="47.87005" lon="-0.2112">
        <ele>35</ele>
        <time>2025-06-17T18:38:11Z</time>
      </trkpt>
      <trkpt lat="47.87021" lon="-0.21095">
        <ele>35</ele>
        <time>2025-06-17T18:38:15Z</time>
      </trkpt>
      <trkpt lat="47.87028" lon="-0.21075">
        <ele>35</ele>
        <time>2025-06-17T18:38:18Z</time>
      </trkpt>
      <trkpt lat="47.87034" lon="-0.21054">
        <ele>35</ele>
        <time>2025-06-17T18:38:21Z</time>
      </trkpt>
      <trkpt lat="47.8704" lon="-0.20999">
        <ele>35</ele>
        <time>2025-06-17T18:38:27Z</time>
      </trkpt>
      <trkpt lat="47.87046" lon="-0.20909">
        <ele>35</ele>
        <time>2025-06-17T18:38:38Z</time>
      </trkpt>
      <trkpt lat="47.87048" lon="-0.20688">
        <ele>36</ele>
        <time>2025-06-17T18:39:05Z</time>
      </trkpt>
      <trkpt lat="47.87053" lon="-0.20649">
        <ele>36</ele>
        <time>2025-06-17T18:39:09Z</time>
      </trkpt>
      <trkpt lat="47.87059" lon="-0.20624">
        <ele>35</ele>
        <time>2025-06-17T18:39:13Z</time>
      </trkpt>
      <trkpt lat="47.87072" lon="-0.20592">
        <ele>33</ele>
        <time>2025-06-17T18:39:17Z</time>
      </trkpt>
      <trkpt lat="47.87089" lon="-0.20567">
        <ele>32</ele>
        <time>2025-06-17T18:39:21Z</time>
      </trkpt>
      <trkpt lat="47.87105" lon="-0.20551">
        <ele>33</ele>
        <time>2025-06-17T18:39:25Z</time>
      </trkpt>
      <trkpt lat="47.8712" lon="-0.20547">
        <ele>34</ele>
        <time>2025-06-17T18:39:27Z</time>
      </trkpt>
      <trkpt lat="47.87138" lon="-0.20547">
        <ele>35</ele>
        <time>2025-06-17T18:39:31Z</time>
      </trkpt>
      <trkpt lat="47.87203" lon="-0.2057">
        <ele>38</ele>
        <time>2025-06-17T18:39:43Z</time>
      </trkpt>
      <trkpt lat="47.87253" lon="-0.20577">
        <ele>40</ele>
        <time>2025-06-17T18:39:51Z</time>
      </trkpt>
      <trkpt lat="47.87259" lon="-0.20548">
        <ele>38</ele>
        <time>2025-06-17T18:39:55Z</time>
      </trkpt>
      <trkpt lat="47.87262" lon="-0.20523">
        <ele>37</ele>
        <time>2025-06-17T18:39:58Z</time>
      </trkpt>
      <trkpt lat="47.87267" lon="-0.20434">
        <ele>37</ele>
        <time>2025-06-17T18:40:09Z</time>
      </trkpt>
      <trkpt lat="47.87267" lon="-0.20414">
        <ele>38</ele>
        <time>2025-06-17T18:40:11Z</time>
      </trkpt>
      <trkpt lat="47.87265" lon="-0.20395">
        <ele>39</ele>
        <time>2025-06-17T18:40:13Z</time>
      </trkpt>
      <trkpt lat="47.87263" lon="-0.20376">
        <ele>40</ele>
        <time>2025-06-17T18:40:16Z</time>
      </trkpt>
      <trkpt lat="47.87259" lon="-0.20359">
        <ele>41</ele>
        <time>2025-06-17T18:40:18Z</time>
      </trkpt>
      <trkpt lat="47.87253" lon="-0.20336">
        <ele>42</ele>
        <time>2025-06-17T18:40:21Z</time>
      </trkpt>
      <trkpt lat="47.87248" lon="-0.20323">
        <ele>42</ele>
        <time>2025-06-17T18:40:23Z</time>
      </trkpt>
      <trkpt lat="47.87243" lon="-0.20312">
        <ele>43</ele>
        <time>2025-06-17T18:40:24Z</time>
      </trkpt>
      <trkpt lat="47.87235" lon="-0.20299">
        <ele>43</ele>
        <time>2025-06-17T18:40:26Z</time>
      </trkpt>
      <trkpt lat="47.87231" lon="-0.20286">
        <ele>44</ele>
        <time>2025-06-17T18:40:28Z</time>
      </trkpt>
      <trkpt lat="47.87229" lon="-0.20272">
        <ele>44</ele>
        <time>2025-06-17T18:40:30Z</time>
      </trkpt>
      <trkpt lat="47.8723" lon="-0.20218">
        <ele>45</ele>
        <time>2025-06-17T18:40:36Z</time>
      </trkpt>
      <trkpt lat="47.87228" lon="-0.202">
        <ele>45</ele>
        <time>2025-06-17T18:40:38Z</time>
      </trkpt>
      <trkpt lat="47.87222" lon="-0.2018">
        <ele>46</ele>
        <time>2025-06-17T18:40:41Z</time>
      </trkpt>
      <trkpt lat="47.87205" lon="-0.20149">
        <ele>47</ele>
        <time>2025-06-17T18:40:46Z</time>
      </trkpt>
      <trkpt lat="47.87197" lon="-0.20142">
        <ele>47</ele>
        <time>2025-06-17T18:40:47Z</time>
      </trkpt>
      <trkpt lat="47.87187" lon="-0.2014">
        <ele>48</ele>
        <time>2025-06-17T18:40:49Z</time>
      </trkpt>
      <trkpt lat="47.87064" lon="-0.20148">
        <ele>49</ele>
        <time>2025-06-17T18:41:11Z</time>
      </trkpt>
      <trkpt lat="47.86862" lon="-0.20158">
        <ele>55</ele>
        <time>2025-06-17T18:41:47Z</time>
      </trkpt>
      <trkpt lat="47.86844" lon="-0.20157">
        <ele>55</ele>
        <time>2025-06-17T18:41:50Z</time>
      </trkpt>
      <trkpt lat="47.86841" lon="-0.20154">
        <ele>55</ele>
        <time>2025-06-17T18:41:51Z</time>
      </trkpt>
      <trkpt lat="47.86858" lon="-0.20118">
        <ele>56</ele>
        <time>2025-06-17T18:41:56Z</time>
      </trkpt>
      <trkpt lat="47.86888" lon="-0.20034">
        <ele>56</ele>
        <time>2025-06-17T18:42:08Z</time>
      </trkpt>
      <trkpt lat="47.86917" lon="-0.19969">
        <ele>55</ele>
        <time>2025-06-17T18:42:17Z</time>
      </trkpt>
      <trkpt lat="47.86936" lon="-0.19909">
        <ele>56</ele>
        <time>2025-06-17T18:42:25Z</time>
      </trkpt>
      <trkpt lat="47.86961" lon="-0.19786">
        <ele>56</ele>
        <time>2025-06-17T18:42:40Z</time>
      </trkpt>
      <trkpt lat="47.86968" lon="-0.19748">
        <ele>56</ele>
        <time>2025-06-17T18:42:45Z</time>
      </trkpt>
      <trkpt lat="47.86992" lon="-0.19631">
        <ele>51</ele>
        <time>2025-06-17T18:42:59Z</time>
      </trkpt>
      <trkpt lat="47.87043" lon="-0.19432">
        <ele>50</ele>
        <time>2025-06-17T18:43:25Z</time>
      </trkpt>
      <trkpt lat="47.87051" lon="-0.194">
        <ele>50</ele>
        <time>2025-06-17T18:43:29Z</time>
      </trkpt>
      <trkpt lat="47.87087" lon="-0.19218">
        <ele>48</ele>
        <time>2025-06-17T18:43:52Z</time>
      </trkpt>
      <trkpt lat="47.87094" lon="-0.19156">
        <ele>47</ele>
        <time>2025-06-17T18:43:59Z</time>
      </trkpt>
      <trkpt lat="47.87107" lon="-0.18963">
        <ele>45</ele>
        <time>2025-06-17T18:44:22Z</time>
      </trkpt>
      <trkpt lat="47.87111" lon="-0.18931">
        <ele>45</ele>
        <time>2025-06-17T18:44:26Z</time>
      </trkpt>
      <trkpt lat="47.87117" lon="-0.18901">
        <ele>45</ele>
        <time>2025-06-17T18:44:30Z</time>
      </trkpt>
      <trkpt lat="47.87126" lon="-0.18869">
        <ele>45</ele>
        <time>2025-06-17T18:44:34Z</time>
      </trkpt>
      <trkpt lat="47.87152" lon="-0.18796">
        <ele>44</ele>
        <time>2025-06-17T18:44:44Z</time>
      </trkpt>
      <trkpt lat="47.87167" lon="-0.18744">
        <ele>44</ele>
        <time>2025-06-17T18:44:51Z</time>
      </trkpt>
      <trkpt lat="47.87179" lon="-0.18694">
        <ele>44</ele>
        <time>2025-06-17T18:44:57Z</time>
      </trkpt>
      <trkpt lat="47.87184" lon="-0.18662">
        <ele>44</ele>
        <time>2025-06-17T18:45:01Z</time>
      </trkpt>
      <trkpt lat="47.87185" lon="-0.1863">
        <ele>43</ele>
        <time>2025-06-17T18:45:05Z</time>
      </trkpt>
      <trkpt lat="47.87182" lon="-0.186">
        <ele>43</ele>
        <time>2025-06-17T18:45:08Z</time>
      </trkpt>
      <trkpt lat="47.87151" lon="-0.18466">
        <ele>43</ele>
        <time>2025-06-17T18:45:25Z</time>
      </trkpt>
      <trkpt lat="47.87145" lon="-0.18428">
        <ele>43</ele>
        <time>2025-06-17T18:45:30Z</time>
      </trkpt>
      <trkpt lat="47.87146" lon="-0.18394">
        <ele>43</ele>
        <time>2025-06-17T18:45:34Z</time>
      </trkpt>
      <trkpt lat="47.8715" lon="-0.18366">
        <ele>43</ele>
        <time>2025-06-17T18:45:37Z</time>
      </trkpt>
      <trkpt lat="47.87155" lon="-0.1834">
        <ele>44</ele>
        <time>2025-06-17T18:45:41Z</time>
      </trkpt>
      <trkpt lat="47.87165" lon="-0.18308">
        <ele>44</ele>
        <time>2025-06-17T18:45:45Z</time>
      </trkpt>
      <trkpt lat="47.87179" lon="-0.18282">
        <ele>45</ele>
        <time>2025-06-17T18:45:49Z</time>
      </trkpt>
      <trkpt lat="47.87191" lon="-0.18263">
        <ele>45</ele>
        <time>2025-06-17T18:45:52Z</time>
      </trkpt>
      <trkpt lat="47.87207" lon="-0.18245">
        <ele>46</ele>
        <time>2025-06-17T18:45:55Z</time>
      </trkpt>
      <trkpt lat="47.87222" lon="-0.18233">
        <ele>46</ele>
        <time>2025-06-17T18:45:58Z</time>
      </trkpt>
      <trkpt lat="47.87247" lon="-0.18212">
        <ele>46</ele>
        <time>2025-06-17T18:46:04Z</time>
      </trkpt>
      <trkpt lat="47.87262" lon="-0.18201">
        <ele>46</ele>
        <time>2025-06-17T18:46:07Z</time>
      </trkpt>
      <trkpt lat="47.87283" lon="-0.1818">
        <ele>46</ele>
        <time>2025-06-17T18:46:11Z</time>
      </trkpt>
      <trkpt lat="47.87303" lon="-0.18156">
        <ele>45</ele>
        <time>2025-06-17T18:46:16Z</time>
      </trkpt>
      <trkpt lat="47.8731" lon="-0.18144">
        <ele>45</ele>
        <time>2025-06-17T18:46:18Z</time>
      </trkpt>
      <trkpt lat="47.87324" lon="-0.18122">
        <ele>44</ele>
        <time>2025-06-17T18:46:21Z</time>
      </trkpt>
      <trkpt lat="47.87336" lon="-0.18089">
        <ele>43</ele>
        <time>2025-06-17T18:46:26Z</time>
      </trkpt>
      <trkpt lat="47.8735" lon="-0.1805">
        <ele>41</ele>
        <time>2025-06-17T18:46:31Z</time>
      </trkpt>
      <trkpt lat="47.87354" lon="-0.18019">
        <ele>40</ele>
        <time>2025-06-17T18:46:35Z</time>
      </trkpt>
      <trkpt lat="47.87357" lon="-0.17918">
        <ele>40</ele>
        <time>2025-06-17T18:46:47Z</time>
      </trkpt>
      <trkpt lat="47.87373" lon="-0.17719">
        <ele>39</ele>
        <time>2025-06-17T18:47:11Z</time>
      </trkpt>
      <trkpt lat="47.87375" lon="-0.17689">
        <ele>38</ele>
        <time>2025-06-17T18:47:14Z</time>
      </trkpt>
      <trkpt lat="47.87373" lon="-0.17661">
        <ele>39</ele>
        <time>2025-06-17T18:47:18Z</time>
      </trkpt>
      <trkpt lat="47.87357" lon="-0.17584">
        <ele>38</ele>
        <time>2025-06-17T18:47:27Z</time>
      </trkpt>
      <trkpt lat="47.87343" lon="-0.17506">
        <ele>40</ele>
        <time>2025-06-17T18:47:37Z</time>
      </trkpt>
      <trkpt lat="47.87338" lon="-0.17466">
        <ele>40</ele>
        <time>2025-06-17T18:47:42Z</time>
      </trkpt>
      <trkpt lat="47.87336" lon="-0.17346">
        <ele>39</ele>
        <time>2025-06-17T18:47:56Z</time>
      </trkpt>
      <trkpt lat="47.8734" lon="-0.17321">
        <ele>38</ele>
        <time>2025-06-17T18:47:59Z</time>
      </trkpt>
      <trkpt lat="47.87345" lon="-0.17308">
        <ele>38</ele>
        <time>2025-06-17T18:48:01Z</time>
      </trkpt>
      <trkpt lat="47.87333" lon="-0.17304">
        <ele>38</ele>
        <time>2025-06-17T18:48:03Z</time>
      </trkpt>
      <trkpt lat="47.87278" lon="-0.17298">
        <ele>42</ele>
        <time>2025-06-17T18:48:13Z</time>
      </trkpt>
      <trkpt lat="47.87204" lon="-0.17302">
        <ele>42</ele>
        <time>2025-06-17T18:48:26Z</time>
      </trkpt>
      <trkpt lat="47.87196" lon="-0.17302">
        <ele>42</ele>
        <time>2025-06-17T18:48:28Z</time>
      </trkpt>
      <trkpt lat="47.87189" lon="-0.17299">
        <ele>42</ele>
        <time>2025-06-17T18:48:29Z</time>
      </trkpt>
      <trkpt lat="47.8718" lon="-0.17311">
        <ele>41</ele>
        <time>2025-06-17T18:48:31Z</time>
      </trkpt>
      <trkpt lat="47.87172" lon="-0.17319">
        <ele>41</ele>
        <time>2025-06-17T18:48:33Z</time>
      </trkpt>
      <trkpt lat="47.87165" lon="-0.17323">
        <ele>41</ele>
        <time>2025-06-17T18:48:34Z</time>
      </trkpt>
      <trkpt lat="47.87149" lon="-0.17329">
        <ele>41</ele>
        <time>2025-06-17T18:48:37Z</time>
      </trkpt>
      <trkpt lat="47.87127" lon="-0.17333">
        <ele>40</ele>
        <time>2025-06-17T18:48:41Z</time>
      </trkpt>
      <trkpt lat="47.87104" lon="-0.17333">
        <ele>39</ele>
        <time>2025-06-17T18:48:45Z</time>
      </trkpt>
      <trkpt lat="47.87018" lon="-0.17321">
        <ele>40</ele>
        <time>2025-06-17T18:49:00Z</time>
      </trkpt>
      <trkpt lat="47.86988" lon="-0.17319">
        <ele>40</ele>
        <time>2025-06-17T18:49:06Z</time>
      </trkpt>
      <trkpt lat="47.86951" lon="-0.17321">
        <ele>41</ele>
        <time>2025-06-17T18:49:12Z</time>
      </trkpt>
      <trkpt lat="47.8694" lon="-0.17321">
        <ele>41</ele>
        <time>2025-06-17T18:49:14Z</time>
      </trkpt>
      <trkpt lat="47.86928" lon="-0.17318">
        <ele>41</ele>
        <time>2025-06-17T18:49:16Z</time>
      </trkpt>
      <trkpt lat="47.86834" lon="-0.17291">
        <ele>43</ele>
        <time>2025-06-17T18:49:33Z</time>
      </trkpt>
      <trkpt lat="47.86812" lon="-0.17282">
        <ele>43</ele>
        <time>2025-06-17T18:49:37Z</time>
      </trkpt>
      <trkpt lat="47.86785" lon="-0.17266">
        <ele>44</ele>
        <time>2025-06-17T18:49:43Z</time>
      </trkpt>
      <trkpt lat="47.86756" lon="-0.17245">
        <ele>44</ele>
        <time>2025-06-17T18:49:48Z</time>
      </trkpt>
      <trkpt lat="47.86743" lon="-0.17241">
        <ele>44</ele>
        <time>2025-06-17T18:49:51Z</time>
      </trkpt>
      <trkpt lat="47.86726" lon="-0.17241">
        <ele>44</ele>
        <time>2025-06-17T18:49:54Z</time>
      </trkpt>
      <trkpt lat="47.86526" lon="-0.17267">
        <ele>45</ele>
        <time>2025-06-17T18:50:30Z</time>
      </trkpt>
      <trkpt lat="47.86509" lon="-0.1702">
        <ele>44</ele>
        <time>2025-06-17T18:50:59Z</time>
      </trkpt>
      <trkpt lat="47.865" lon="-0.16893">
        <ele>45</ele>
        <time>2025-06-17T18:51:14Z</time>
      </trkpt>
      <trkpt lat="47.86495" lon="-0.16828">
        <ele>46</ele>
        <time>2025-06-17T18:51:22Z</time>
      </trkpt>
      <trkpt lat="47.86447" lon="-0.16103">
        <ele>48</ele>
        <time>2025-06-17T18:52:49Z</time>
      </trkpt>
      <trkpt lat="47.86444" lon="-0.16079">
        <ele>48</ele>
        <time>2025-06-17T18:52:52Z</time>
      </trkpt>
      <trkpt lat="47.86437" lon="-0.16066">
        <ele>48</ele>
        <time>2025-06-17T18:52:54Z</time>
      </trkpt>
      <trkpt lat="47.86427" lon="-0.16054">
        <ele>48</ele>
        <time>2025-06-17T18:52:56Z</time>
      </trkpt>
      <trkpt lat="47.86419" lon="-0.16034">
        <ele>47</ele>
        <time>2025-06-17T18:52:59Z</time>
      </trkpt>
      <trkpt lat="47.86398" lon="-0.15977">
        <ele>47</ele>
        <time>2025-06-17T18:53:07Z</time>
      </trkpt>
      <trkpt lat="47.86382" lon="-0.15929">
        <ele>46</ele>
        <time>2025-06-17T18:53:13Z</time>
      </trkpt>
      <trkpt lat="47.86287" lon="-0.15608">
        <ele>46</ele>
        <time>2025-06-17T18:53:55Z</time>
      </trkpt>
      <trkpt lat="47.86279" lon="-0.15574">
        <ele>46</ele>
        <time>2025-06-17T18:53:59Z</time>
      </trkpt>
      <trkpt lat="47.86265" lon="-0.15477">
        <ele>46</ele>
        <time>2025-06-17T18:54:11Z</time>
      </trkpt>
      <trkpt lat="47.86263" lon="-0.15447">
        <ele>46</ele>
        <time>2025-06-17T18:54:15Z</time>
      </trkpt>
      <trkpt lat="47.86263" lon="-0.15417">
        <ele>46</ele>
        <time>2025-06-17T18:54:19Z</time>
      </trkpt>
      <trkpt lat="47.86274" lon="-0.15297">
        <ele>48</ele>
        <time>2025-06-17T18:54:33Z</time>
      </trkpt>
      <trkpt lat="47.86311" lon="-0.14975">
        <ele>48</ele>
        <time>2025-06-17T18:55:12Z</time>
      </trkpt>
      <trkpt lat="47.86314" lon="-0.14907">
        <ele>49</ele>
        <time>2025-06-17T18:55:20Z</time>
      </trkpt>
      <trkpt lat="47.86311" lon="-0.14861">
        <ele>49</ele>
        <time>2025-06-17T18:55:26Z</time>
      </trkpt>
      <trkpt lat="47.86304" lon="-0.14799">
        <ele>49</ele>
        <time>2025-06-17T18:55:33Z</time>
      </trkpt>
      <trkpt lat="47.863" lon="-0.14739">
        <ele>48</ele>
        <time>2025-06-17T18:55:40Z</time>
      </trkpt>
      <trkpt lat="47.86295" lon="-0.14654">
        <ele>48</ele>
        <time>2025-06-17T18:55:50Z</time>
      </trkpt>
      <trkpt lat="47.86294" lon="-0.14649">
        <ele>48</ele>
        <time>2025-06-17T18:55:51Z</time>
      </trkpt>
      <trkpt lat="47.86292" lon="-0.14632">
        <ele>48</ele>
        <time>2025-06-17T18:55:53Z</time>
      </trkpt>
      <trkpt lat="47.86284" lon="-0.14607">
        <ele>48</ele>
        <time>2025-06-17T18:55:56Z</time>
      </trkpt>
      <trkpt lat="47.8625" lon="-0.14528">
        <ele>49</ele>
        <time>2025-06-17T18:56:08Z</time>
      </trkpt>
      <trkpt lat="47.86235" lon="-0.14498">
        <ele>49</ele>
        <time>2025-06-17T18:56:12Z</time>
      </trkpt>
      <trkpt lat="47.8621" lon="-0.14458">
        <ele>48</ele>
        <time>2025-06-17T18:56:19Z</time>
      </trkpt>
      <trkpt lat="47.86197" lon="-0.14442">
        <ele>47</ele>
        <time>2025-06-17T18:56:22Z</time>
      </trkpt>
      <trkpt lat="47.86186" lon="-0.14417">
        <ele>46</ele>
        <time>2025-06-17T18:56:25Z</time>
      </trkpt>
      <trkpt lat="47.86157" lon="-0.14335">
        <ele>46</ele>
        <time>2025-06-17T18:56:36Z</time>
      </trkpt>
      <trkpt lat="47.86134" lon="-0.14215">
        <ele>48</ele>
        <time>2025-06-17T18:56:51Z</time>
      </trkpt>
      <trkpt lat="47.86125" lon="-0.14182">
        <ele>49</ele>
        <time>2025-06-17T18:56:55Z</time>
      </trkpt>
      <trkpt lat="47.8611" lon="-0.14149">
        <ele>49</ele>
        <time>2025-06-17T18:57:00Z</time>
      </trkpt>
      <trkpt lat="47.86087" lon="-0.14116">
        <ele>50</ele>
        <time>2025-06-17T18:57:06Z</time>
      </trkpt>
      <trkpt lat="47.86075" lon="-0.14101">
        <ele>51</ele>
        <time>2025-06-17T18:57:09Z</time>
      </trkpt>
      <trkpt lat="47.86062" lon="-0.14091">
        <ele>51</ele>
        <time>2025-06-17T18:57:11Z</time>
      </trkpt>
      <trkpt lat="47.86022" lon="-0.14067">
        <ele>51</ele>
        <time>2025-06-17T18:57:19Z</time>
      </trkpt>
      <trkpt lat="47.86004" lon="-0.14051">
        <ele>51</ele>
        <time>2025-06-17T18:57:23Z</time>
      </trkpt>
      <trkpt lat="47.85946" lon="-0.13996">
        <ele>53</ele>
        <time>2025-06-17T18:57:35Z</time>
      </trkpt>
      <trkpt lat="47.85926" lon="-0.13972">
        <ele>54</ele>
        <time>2025-06-17T18:57:40Z</time>
      </trkpt>
      <trkpt lat="47.85912" lon="-0.13949">
        <ele>54</ele>
        <time>2025-06-17T18:57:43Z</time>
      </trkpt>
      <trkpt lat="47.85888" lon="-0.13892">
        <ele>56</ele>
        <time>2025-06-17T18:57:51Z</time>
      </trkpt>
      <trkpt lat="47.85865" lon="-0.13854">
        <ele>57</ele>
        <time>2025-06-17T18:57:57Z</time>
      </trkpt>
      <trkpt lat="47.85825" lon="-0.13797">
        <ele>60</ele>
        <time>2025-06-17T18:58:07Z</time>
      </trkpt>
      <trkpt lat="47.85812" lon="-0.13776">
        <ele>60</ele>
        <time>2025-06-17T18:58:11Z</time>
      </trkpt>
      <trkpt lat="47.85797" lon="-0.13744">
        <ele>61</ele>
        <time>2025-06-17T18:58:15Z</time>
      </trkpt>
      <trkpt lat="47.85783" lon="-0.13717">
        <ele>62</ele>
        <time>2025-06-17T18:58:19Z</time>
      </trkpt>
      <trkpt lat="47.85722" lon="-0.13621">
        <ele>62</ele>
        <time>2025-06-17T18:58:35Z</time>
      </trkpt>
      <trkpt lat="47.8568" lon="-0.13548">
        <ele>62</ele>
        <time>2025-06-17T18:58:47Z</time>
      </trkpt>
      <trkpt lat="47.85642" lon="-0.13482">
        <ele>62</ele>
        <time>2025-06-17T18:58:57Z</time>
      </trkpt>
      <trkpt lat="47.85553" lon="-0.13322">
        <ele>62</ele>
        <time>2025-06-17T18:59:22Z</time>
      </trkpt>
      <trkpt lat="47.85544" lon="-0.13297">
        <ele>62</ele>
        <time>2025-06-17T18:59:25Z</time>
      </trkpt>
      <trkpt lat="47.85536" lon="-0.13273">
        <ele>62</ele>
        <time>2025-06-17T18:59:28Z</time>
      </trkpt>
      <trkpt lat="47.85522" lon="-0.13225">
        <ele>62</ele>
        <time>2025-06-17T18:59:35Z</time>
      </trkpt>
      <trkpt lat="47.8552" lon="-0.1321">
        <ele>62</ele>
        <time>2025-06-17T18:59:36Z</time>
      </trkpt>
      <trkpt lat="47.85518" lon="-0.13175">
        <ele>61</ele>
        <time>2025-06-17T18:59:41Z</time>
      </trkpt>
      <trkpt lat="47.85517" lon="-0.13162">
        <ele>61</ele>
        <time>2025-06-17T18:59:42Z</time>
      </trkpt>
      <trkpt lat="47.85513" lon="-0.1315">
        <ele>61</ele>
        <time>2025-06-17T18:59:44Z</time>
      </trkpt>
      <trkpt lat="47.85507" lon="-0.13142">
        <ele>61</ele>
        <time>2025-06-17T18:59:45Z</time>
      </trkpt>
      <trkpt lat="47.85487" lon="-0.13134">
        <ele>61</ele>
        <time>2025-06-17T18:59:49Z</time>
      </trkpt>
      <trkpt lat="47.85497" lon="-0.13057">
        <ele>61</ele>
        <time>2025-06-17T18:59:58Z</time>
      </trkpt>
      <trkpt lat="47.85501" lon="-0.13005">
        <ele>62</ele>
        <time>2025-06-17T19:00:05Z</time>
      </trkpt>
      <trkpt lat="47.85502" lon="-0.12982">
        <ele>62</ele>
        <time>2025-06-17T19:00:07Z</time>
      </trkpt>
      <trkpt lat="47.85502" lon="-0.12916">
        <ele>63</ele>
        <time>2025-06-17T19:00:15Z</time>
      </trkpt>
      <trkpt lat="47.85499" lon="-0.12853">
        <ele>61</ele>
        <time>2025-06-17T19:00:23Z</time>
      </trkpt>
      <trkpt lat="47.85489" lon="-0.1277">
        <ele>60</ele>
        <time>2025-06-17T19:00:33Z</time>
      </trkpt>
      <trkpt lat="47.85487" lon="-0.12754">
        <ele>60</ele>
        <time>2025-06-17T19:00:35Z</time>
      </trkpt>
      <trkpt lat="47.85446" lon="-0.12522">
        <ele>58</ele>
        <time>2025-06-17T19:01:03Z</time>
      </trkpt>
      <trkpt lat="47.85437" lon="-0.12451">
        <ele>58</ele>
        <time>2025-06-17T19:01:12Z</time>
      </trkpt>
      <trkpt lat="47.85431" lon="-0.12453">
        <ele>58</ele>
        <time>2025-06-17T19:01:13Z</time>
      </trkpt>
      <trkpt lat="47.85414" lon="-0.12451">
        <ele>58</ele>
        <time>2025-06-17T19:01:16Z</time>
      </trkpt>
      <trkpt lat="47.85417" lon="-0.12428">
        <ele>58</ele>
        <time>2025-06-17T19:01:19Z</time>
      </trkpt>
      <trkpt lat="47.85418" lon="-0.12377">
        <ele>57</ele>
        <time>2025-06-17T19:01:25Z</time>
      </trkpt>
      <trkpt lat="47.85418" lon="-0.12334">
        <ele>56</ele>
        <time>2025-06-17T19:01:30Z</time>
      </trkpt>
      <trkpt lat="47.85415" lon="-0.12316">
        <ele>56</ele>
        <time>2025-06-17T19:01:32Z</time>
      </trkpt>
      <trkpt lat="47.85411" lon="-0.12302">
        <ele>56</ele>
        <time>2025-06-17T19:01:34Z</time>
      </trkpt>
      <trkpt lat="47.85403" lon="-0.12291">
        <ele>56</ele>
        <time>2025-06-17T19:01:36Z</time>
      </trkpt>
      <trkpt lat="47.85395" lon="-0.12287">
        <ele>56</ele>
        <time>2025-06-17T19:01:38Z</time>
      </trkpt>
      <trkpt lat="47.85384" lon="-0.12288">
        <ele>55</ele>
        <time>2025-06-17T19:01:40Z</time>
      </trkpt>
      <trkpt lat="47.85372" lon="-0.12293">
        <ele>55</ele>
        <time>2025-06-17T19:01:42Z</time>
      </trkpt>
      <trkpt lat="47.85343" lon="-0.12308">
        <ele>55</ele>
        <time>2025-06-17T19:01:47Z</time>
      </trkpt>
      <trkpt lat="47.85304" lon="-0.12325">
        <ele>56</ele>
        <time>2025-06-17T19:01:54Z</time>
      </trkpt>
      <trkpt lat="47.85258" lon="-0.12349">
        <ele>57</ele>
        <time>2025-06-17T19:02:03Z</time>
      </trkpt>
      <trkpt lat="47.85202" lon="-0.12368">
        <ele>58</ele>
        <time>2025-06-17T19:02:13Z</time>
      </trkpt>
      <trkpt lat="47.85168" lon="-0.12377">
        <ele>59</ele>
        <time>2025-06-17T19:02:20Z</time>
      </trkpt>
      <trkpt lat="47.85115" lon="-0.12392">
        <ele>59</ele>
        <time>2025-06-17T19:02:29Z</time>
      </trkpt>
      <trkpt lat="47.851" lon="-0.12402">
        <ele>58</ele>
        <time>2025-06-17T19:02:32Z</time>
      </trkpt>
      <trkpt lat="47.85001" lon="-0.12491">
        <ele>56</ele>
        <time>2025-06-17T19:02:53Z</time>
      </trkpt>
      <trkpt lat="47.8498" lon="-0.12518">
        <ele>56</ele>
        <time>2025-06-17T19:02:58Z</time>
      </trkpt>
      <trkpt lat="47.84964" lon="-0.12544">
        <ele>56</ele>
        <time>2025-06-17T19:03:02Z</time>
      </trkpt>
      <trkpt lat="47.84948" lon="-0.12572">
        <ele>56</ele>
        <time>2025-06-17T19:03:06Z</time>
      </trkpt>
      <trkpt lat="47.84924" lon="-0.12621">
        <ele>55</ele>
        <time>2025-06-17T19:03:13Z</time>
      </trkpt>
      <trkpt lat="47.84909" lon="-0.12647">
        <ele>54</ele>
        <time>2025-06-17T19:03:18Z</time>
      </trkpt>
      <trkpt lat="47.84892" lon="-0.12668">
        <ele>54</ele>
        <time>2025-06-17T19:03:21Z</time>
      </trkpt>
      <trkpt lat="47.84825" lon="-0.12729">
        <ele>53</ele>
        <time>2025-06-17T19:03:35Z</time>
      </trkpt>
      <trkpt lat="47.84817" lon="-0.12735">
        <ele>52</ele>
        <time>2025-06-17T19:03:37Z</time>
      </trkpt>
      <trkpt lat="47.84805" lon="-0.12737">
        <ele>52</ele>
        <time>2025-06-17T19:03:39Z</time>
      </trkpt>
      <trkpt lat="47.84799" lon="-0.12736">
        <ele>52</ele>
        <time>2025-06-17T19:03:40Z</time>
      </trkpt>
      <trkpt lat="47.84791" lon="-0.12733">
        <ele>51</ele>
        <time>2025-06-17T19:03:42Z</time>
      </trkpt>
      <trkpt lat="47.84742" lon="-0.12673">
        <ele>48</ele>
        <time>2025-06-17T19:03:53Z</time>
      </trkpt>
      <trkpt lat="47.84725" lon="-0.12653">
        <ele>48</ele>
        <time>2025-06-17T19:03:57Z</time>
      </trkpt>
      <trkpt lat="47.84687" lon="-0.1262">
        <ele>48</ele>
        <time>2025-06-17T19:04:05Z</time>
      </trkpt>
      <trkpt lat="47.84656" lon="-0.12587">
        <ele>49</ele>
        <time>2025-06-17T19:04:11Z</time>
      </trkpt>
      <trkpt lat="47.84643" lon="-0.12566">
        <ele>48</ele>
        <time>2025-06-17T19:04:15Z</time>
      </trkpt>
      <trkpt lat="47.84634" lon="-0.12544">
        <ele>48</ele>
        <time>2025-06-17T19:04:18Z</time>
      </trkpt>
      <trkpt lat="47.84609" lon="-0.12483">
        <ele>47</ele>
        <time>2025-06-17T19:04:26Z</time>
      </trkpt>
      <trkpt lat="47.84557" lon="-0.12329">
        <ele>48</ele>
        <time>2025-06-17T19:04:47Z</time>
      </trkpt>
      <trkpt lat="47.8453" lon="-0.1226">
        <ele>48</ele>
        <time>2025-06-17T19:04:57Z</time>
      </trkpt>
      <trkpt lat="47.84503" lon="-0.12203">
        <ele>48</ele>
        <time>2025-06-17T19:05:05Z</time>
      </trkpt>
      <trkpt lat="47.84446" lon="-0.12112">
        <ele>48</ele>
        <time>2025-06-17T19:05:20Z</time>
      </trkpt>
      <trkpt lat="47.844" lon="-0.12049">
        <ele>47</ele>
        <time>2025-06-17T19:05:31Z</time>
      </trkpt>
      <trkpt lat="47.84341" lon="-0.11982">
        <ele>47</ele>
        <time>2025-06-17T19:05:44Z</time>
      </trkpt>
      <trkpt lat="47.84306" lon="-0.11937">
        <ele>47</ele>
        <time>2025-06-17T19:05:52Z</time>
      </trkpt>
      <trkpt lat="47.84296" lon="-0.11925">
        <ele>47</ele>
        <time>2025-06-17T19:05:55Z</time>
      </trkpt>
      <trkpt lat="47.84267" lon="-0.1188">
        <ele>46</ele>
        <time>2025-06-17T19:06:02Z</time>
      </trkpt>
      <trkpt lat="47.84235" lon="-0.11821">
        <ele>46</ele>
        <time>2025-06-17T19:06:11Z</time>
      </trkpt>
      <trkpt lat="47.84221" lon="-0.11812">
        <ele>47</ele>
        <time>2025-06-17T19:06:14Z</time>
      </trkpt>
      <trkpt lat="47.83946" lon="-0.11718">
        <ele>45</ele>
        <time>2025-06-17T19:07:04Z</time>
      </trkpt>
      <trkpt lat="47.83912" lon="-0.11702">
        <ele>44</ele>
        <time>2025-06-17T19:07:10Z</time>
      </trkpt>
      <trkpt lat="47.83873" lon="-0.11675">
        <ele>43</ele>
        <time>2025-06-17T19:07:18Z</time>
      </trkpt>
      <trkpt lat="47.8383" lon="-0.11642">
        <ele>43</ele>
        <time>2025-06-17T19:07:27Z</time>
      </trkpt>
      <trkpt lat="47.83759" lon="-0.11559">
        <ele>42</ele>
        <time>2025-06-17T19:07:43Z</time>
      </trkpt>
      <trkpt lat="47.83651" lon="-0.11448">
        <ele>42</ele>
        <time>2025-06-17T19:08:06Z</time>
      </trkpt>
      <trkpt lat="47.83624" lon="-0.11423">
        <ele>42</ele>
        <time>2025-06-17T19:08:12Z</time>
      </trkpt>
      <trkpt lat="47.83453" lon="-0.11253">
        <ele>44</ele>
        <time>2025-06-17T19:08:48Z</time>
      </trkpt>
      <trkpt lat="47.83423" lon="-0.11219">
        <ele>44</ele>
        <time>2025-06-17T19:08:55Z</time>
      </trkpt>
      <trkpt lat="47.8335" lon="-0.11112">
        <ele>42</ele>
        <time>2025-06-17T19:09:13Z</time>
      </trkpt>
      <trkpt lat="47.83299" lon="-0.11038">
        <ele>40</ele>
        <time>2025-06-17T19:09:26Z</time>
      </trkpt>
      <trkpt lat="47.83258" lon="-0.10993">
        <ele>38</ele>
        <time>2025-06-17T19:09:35Z</time>
      </trkpt>
      <trkpt lat="47.83213" lon="-0.1096">
        <ele>38</ele>
        <time>2025-06-17T19:09:44Z</time>
      </trkpt>
      <trkpt lat="47.83147" lon="-0.10935">
        <ele>38</ele>
        <time>2025-06-17T19:09:56Z</time>
      </trkpt>
      <trkpt lat="47.83052" lon="-0.10909">
        <ele>37</ele>
        <time>2025-06-17T19:10:13Z</time>
      </trkpt>
      <trkpt lat="47.82991" lon="-0.10886">
        <ele>38</ele>
        <time>2025-06-17T19:10:24Z</time>
      </trkpt>
      <trkpt lat="47.82918" lon="-0.10866">
        <ele>39</ele>
        <time>2025-06-17T19:10:38Z</time>
      </trkpt>
      <trkpt lat="47.82886" lon="-0.10855">
        <ele>38</ele>
        <time>2025-06-17T19:10:43Z</time>
      </trkpt>
      <trkpt lat="47.82788" lon="-0.10797">
        <ele>35</ele>
        <time>2025-06-17T19:11:02Z</time>
      </trkpt>
      <trkpt lat="47.82756" lon="-0.1078">
        <ele>34</ele>
        <time>2025-06-17T19:11:08Z</time>
      </trkpt>
      <trkpt lat="47.82731" lon="-0.1076">
        <ele>34</ele>
        <time>2025-06-17T19:11:13Z</time>
      </trkpt>
      <trkpt lat="47.8271" lon="-0.10741">
        <ele>33</ele>
        <time>2025-06-17T19:11:18Z</time>
      </trkpt>
      <trkpt lat="47.82686" lon="-0.10717">
        <ele>34</ele>
        <time>2025-06-17T19:11:23Z</time>
      </trkpt>
      <trkpt lat="47.82653" lon="-0.10677">
        <ele>35</ele>
        <time>2025-06-17T19:11:30Z</time>
      </trkpt>
      <trkpt lat="47.82622" lon="-0.10628">
        <ele>36</ele>
        <time>2025-06-17T19:11:38Z</time>
      </trkpt>
      <trkpt lat="47.82609" lon="-0.10612">
        <ele>36</ele>
        <time>2025-06-17T19:11:41Z</time>
      </trkpt>
      <trkpt lat="47.82508" lon="-0.10529">
        <ele>36</ele>
        <time>2025-06-17T19:12:02Z</time>
      </trkpt>
      <trkpt lat="47.82392" lon="-0.1042">
        <ele>34</ele>
        <time>2025-06-17T19:12:26Z</time>
      </trkpt>
      <trkpt lat="47.82308" lon="-0.10332">
        <ele>32</ele>
        <time>2025-06-17T19:12:45Z</time>
      </trkpt>
      <trkpt lat="47.82239" lon="-0.102">
        <ele>33</ele>
        <time>2025-06-17T19:13:05Z</time>
      </trkpt>
      <trkpt lat="47.82194" lon="-0.10114">
        <ele>33</ele>
        <time>2025-06-17T19:13:18Z</time>
      </trkpt>
      <trkpt lat="47.82085" lon="-0.09931">
        <ele>32</ele>
        <time>2025-06-17T19:13:47Z</time>
      </trkpt>
      <trkpt lat="47.82015" lon="-0.09817">
        <ele>32</ele>
        <time>2025-06-17T19:14:05Z</time>
      </trkpt>
      <trkpt lat="47.82002" lon="-0.09795">
        <ele>34</ele>
        <time>2025-06-17T19:14:09Z</time>
      </trkpt>
      <trkpt lat="47.81983" lon="-0.09758">
        <ele>36</ele>
        <time>2025-06-17T19:14:14Z</time>
      </trkpt>
      <trkpt lat="47.81951" lon="-0.09685">
        <ele>36</ele>
        <time>2025-06-17T19:14:25Z</time>
      </trkpt>
      <trkpt lat="47.81811" lon="-0.09343">
        <ele>35</ele>
        <time>2025-06-17T19:15:13Z</time>
      </trkpt>
      <trkpt lat="47.81787" lon="-0.09287">
        <ele>33</ele>
        <time>2025-06-17T19:15:21Z</time>
      </trkpt>
      <trkpt lat="47.81765" lon="-0.09254">
        <ele>32</ele>
        <time>2025-06-17T19:15:26Z</time>
      </trkpt>
      <trkpt lat="47.8176" lon="-0.09242">
        <ele>31</ele>
        <time>2025-06-17T19:15:28Z</time>
      </trkpt>
      <trkpt lat="47.8176" lon="-0.09228">
        <ele>32</ele>
        <time>2025-06-17T19:15:29Z</time>
      </trkpt>
      <trkpt lat="47.81763" lon="-0.09211">
        <ele>32</ele>
        <time>2025-06-17T19:15:32Z</time>
      </trkpt>
      <trkpt lat="47.818" lon="-0.09082">
        <ele>33</ele>
        <time>2025-06-17T19:15:48Z</time>
      </trkpt>
      <trkpt lat="47.81771" lon="-0.09069">
        <ele>32</ele>
        <time>2025-06-17T19:15:54Z</time>
      </trkpt>
      <trkpt lat="47.81717" lon="-0.09046">
        <ele>31</ele>
        <time>2025-06-17T19:16:04Z</time>
      </trkpt>
      <trkpt lat="47.81674" lon="-0.09025">
        <ele>30</ele>
        <time>2025-06-17T19:16:12Z</time>
      </trkpt>
      <trkpt lat="47.81629" lon="-0.08999">
        <ele>30</ele>
        <time>2025-06-17T19:16:20Z</time>
      </trkpt>
      <trkpt lat="47.81626" lon="-0.08998">
        <ele>30</ele>
        <time>2025-06-17T19:16:21Z</time>
      </trkpt>
      <trkpt lat="47.8162" lon="-0.08994">
        <ele>29</ele>
        <time>2025-06-17T19:16:22Z</time>
      </trkpt>
      <trkpt lat="47.816" lon="-0.08982">
        <ele>29</ele>
        <time>2025-06-17T19:16:26Z</time>
      </trkpt>
      <trkpt lat="47.81597" lon="-0.0898">
        <ele>29</ele>
        <time>2025-06-17T19:16:26Z</time>
      </trkpt>
      <trkpt lat="47.81556" lon="-0.08955">
        <ele>30</ele>
        <time>2025-06-17T19:16:34Z</time>
      </trkpt>
      <trkpt lat="47.81507" lon="-0.08925">
        <ele>32</ele>
        <time>2025-06-17T19:16:44Z</time>
      </trkpt>
      <trkpt lat="47.8149" lon="-0.08915">
        <ele>32</ele>
        <time>2025-06-17T19:16:47Z</time>
      </trkpt>
      <trkpt lat="47.81463" lon="-0.08898">
        <ele>33</ele>
        <time>2025-06-17T19:16:52Z</time>
      </trkpt>
      <trkpt lat="47.81446" lon="-0.08889">
        <ele>34</ele>
        <time>2025-06-17T19:16:55Z</time>
      </trkpt>
      <trkpt lat="47.81434" lon="-0.08885">
        <ele>34</ele>
        <time>2025-06-17T19:16:58Z</time>
      </trkpt>
      <trkpt lat="47.81432" lon="-0.08877">
        <ele>35</ele>
        <time>2025-06-17T19:16:59Z</time>
      </trkpt>
      <trkpt lat="47.81418" lon="-0.08848">
        <ele>36</ele>
        <time>2025-06-17T19:17:03Z</time>
      </trkpt>
      <trkpt lat="47.81412" lon="-0.08833">
        <ele>37</ele>
        <time>2025-06-17T19:17:05Z</time>
      </trkpt>
      <trkpt lat="47.8141" lon="-0.08828">
        <ele>37</ele>
        <time>2025-06-17T19:17:06Z</time>
      </trkpt>
      <trkpt lat="47.81404" lon="-0.08802">
        <ele>37</ele>
        <time>2025-06-17T19:17:09Z</time>
      </trkpt>
      <trkpt lat="47.81402" lon="-0.08791">
        <ele>37</ele>
        <time>2025-06-17T19:17:10Z</time>
      </trkpt>
      <trkpt lat="47.81388" lon="-0.08779">
        <ele>37</ele>
        <time>2025-06-17T19:17:13Z</time>
      </trkpt>
      <trkpt lat="47.81382" lon="-0.08771">
        <ele>37</ele>
        <time>2025-06-17T19:17:15Z</time>
      </trkpt>
      <trkpt lat="47.81372" lon="-0.08745">
        <ele>36</ele>
        <time>2025-06-17T19:17:18Z</time>
      </trkpt>
      <trkpt lat="47.81363" lon="-0.08719">
        <ele>36</ele>
        <time>2025-06-17T19:17:22Z</time>
      </trkpt>
      <trkpt lat="47.81351" lon="-0.08676">
        <ele>36</ele>
        <time>2025-06-17T19:17:27Z</time>
      </trkpt>
      <trkpt lat="47.81339" lon="-0.08632">
        <ele>35</ele>
        <time>2025-06-17T19:17:33Z</time>
      </trkpt>
      <trkpt lat="47.81333" lon="-0.08612">
        <ele>35</ele>
        <time>2025-06-17T19:17:36Z</time>
      </trkpt>
      <trkpt lat="47.81327" lon="-0.08601">
        <ele>35</ele>
        <time>2025-06-17T19:17:37Z</time>
      </trkpt>
      <trkpt lat="47.81317" lon="-0.08589">
        <ele>35</ele>
        <time>2025-06-17T19:17:40Z</time>
      </trkpt>
      <trkpt lat="47.813" lon="-0.08569">
        <ele>34</ele>
        <time>2025-06-17T19:17:43Z</time>
      </trkpt>
      <trkpt lat="47.81265" lon="-0.08525">
        <ele>34</ele>
        <time>2025-06-17T19:17:52Z</time>
      </trkpt>
      <trkpt lat="47.81229" lon="-0.08471">
        <ele>34</ele>
        <time>2025-06-17T19:18:01Z</time>
      </trkpt>
      <trkpt lat="47.81211" lon="-0.08451">
        <ele>34</ele>
        <time>2025-06-17T19:18:05Z</time>
      </trkpt>
      <trkpt lat="47.81187" lon="-0.08429">
        <ele>34</ele>
        <time>2025-06-17T19:18:10Z</time>
      </trkpt>
      <trkpt lat="47.81129" lon="-0.08411">
        <ele>33</ele>
        <time>2025-06-17T19:18:20Z</time>
      </trkpt>
      <trkpt lat="47.81114" lon="-0.08407">
        <ele>33</ele>
        <time>2025-06-17T19:18:23Z</time>
      </trkpt>
      <trkpt lat="47.81086" lon="-0.08414">
        <ele>32</ele>
        <time>2025-06-17T19:18:28Z</time>
      </trkpt>
      <trkpt lat="47.8107" lon="-0.08434">
        <ele>33</ele>
        <time>2025-06-17T19:18:32Z</time>
      </trkpt>
      <trkpt lat="47.81051" lon="-0.0847">
        <ele>34</ele>
        <time>2025-06-17T19:18:37Z</time>
      </trkpt>
      <trkpt lat="47.81044" lon="-0.08481">
        <ele>34</ele>
        <time>2025-06-17T19:18:39Z</time>
      </trkpt>
      <trkpt lat="47.81014" lon="-0.08537">
        <ele>36</ele>
        <time>2025-06-17T19:18:48Z</time>
      </trkpt>
      <trkpt lat="47.80837" lon="-0.08617">
        <ele>34.2</ele>
      </trkpt>
      <trkpt lat="47.80762" lon="-0.08622">
        <ele>35</ele>
        <time>2025-06-17T19:19:06Z</time>
      </trkpt>
      <trkpt lat="47.80609" lon="-0.08622">
        <ele>35.4</ele>
        <time>2025-06-17T19:19:10Z</time>
      </trkpt>
      <trkpt lat="47.80408" lon="-0.08514">
        <ele>35</ele>
      </trkpt>
      <trkpt lat="47.80347" lon="-0.0854">
        <ele>35</ele>
      </trkpt>
      <trkpt lat="47.80082" lon="-0.08454">
        <ele>37</ele>
        <time>2025-06-17T19:19:12Z</time>
      </trkpt>
      <trkpt lat="47.79923" lon="-0.08459">
        <ele>40.1</ele>
      </trkpt>
      <trkpt lat="47.79805" lon="-0.08566">
        <ele>43.6</ele>
      </trkpt>
      <trkpt lat="47.79649" lon="-0.0863">
        <ele>41.9</ele>
      </trkpt>
      <trkpt lat="47.79292" lon="-0.08446">
        <ele>43.5</ele>
      </trkpt>
      <trkpt lat="47.7896" lon="-0.08317">
        <ele>42</ele>
      </trkpt>
      <trkpt lat="47.78784" lon="-0.08137">
        <ele>43.4</ele>
      </trkpt>
      <trkpt lat="47.78551" lon="-0.0806">
        <ele>42</ele>
      </trkpt>
      <trkpt lat="47.78433" lon="-0.08034">
        <ele>43.6</ele>
        <time>2025-06-17T19:37:10Z</time>
      </trkpt>
      <trkpt lat="47.78101" lon="-0.07978">
        <ele>48</ele>
        <time>2025-06-17T19:38:02Z</time>
      </trkpt>
      <trkpt lat="47.78057" lon="-0.07959">
        <ele>49.4</ele>
        <time>2025-06-17T19:38:07Z</time>
      </trkpt>
      <trkpt lat="47.77987" lon="-0.0788">
        <ele>54.1</ele>
        <time>2025-06-17T19:38:11Z</time>
      </trkpt>
      <trkpt lat="47.77839" lon="-0.07622">
        <ele>57</ele>
        <time>2025-06-17T19:38:23Z</time>
      </trkpt>
      <trkpt lat="47.77831" lon="-0.07611">
        <ele>57</ele>
        <time>2025-06-17T19:38:25Z</time>
      </trkpt>
      <trkpt lat="47.77657" lon="-0.07325">
        <ele>67</ele>
        <time>2025-06-17T19:39:11Z</time>
      </trkpt>
      <trkpt lat="47.77587" lon="-0.07207">
        <ele>67</ele>
        <time>2025-06-17T19:39:30Z</time>
      </trkpt>
      <trkpt lat="47.77564" lon="-0.07167">
        <ele>65</ele>
        <time>2025-06-17T19:39:36Z</time>
      </trkpt>
      <trkpt lat="47.77545" lon="-0.07119">
        <ele>64</ele>
        <time>2025-06-17T19:39:43Z</time>
      </trkpt>
      <trkpt lat="47.77532" lon="-0.0706">
        <ele>63</ele>
        <time>2025-06-17T19:39:50Z</time>
      </trkpt>
      <trkpt lat="47.77522" lon="-0.0704">
        <ele>63</ele>
        <time>2025-06-17T19:39:53Z</time>
      </trkpt>
      <trkpt lat="47.77512" lon="-0.07027">
        <ele>62</ele>
        <time>2025-06-17T19:39:56Z</time>
      </trkpt>
      <trkpt lat="47.77503" lon="-0.07021">
        <ele>62</ele>
        <time>2025-06-17T19:39:57Z</time>
      </trkpt>
      <trkpt lat="47.77487" lon="-0.07015">
        <ele>63</ele>
        <time>2025-06-17T19:40:00Z</time>
      </trkpt>
      <trkpt lat="47.77388" lon="-0.06996">
        <ele>69</ele>
        <time>2025-06-17T19:40:18Z</time>
      </trkpt>
      <trkpt lat="47.77357" lon="-0.06986">
        <ele>73</ele>
        <time>2025-06-17T19:40:24Z</time>
      </trkpt>
      <trkpt lat="47.77319" lon="-0.06967">
        <ele>76</ele>
        <time>2025-06-17T19:40:31Z</time>
      </trkpt>
      <trkpt lat="47.77247" lon="-0.06921">
        <ele>77</ele>
        <time>2025-06-17T19:40:45Z</time>
      </trkpt>
      <trkpt lat="47.77221" lon="-0.06896">
        <ele>77</ele>
        <time>2025-06-17T19:40:50Z</time>
      </trkpt>
      <trkpt lat="47.7717" lon="-0.06777">
        <ele>78</ele>
        <time>2025-06-17T19:41:07Z</time>
      </trkpt>
      <trkpt lat="47.77107" lon="-0.06796">
        <ele>79</ele>
        <time>2025-06-17T19:41:19Z</time>
      </trkpt>
      <trkpt lat="47.77077" lon="-0.06823">
        <ele>79</ele>
        <time>2025-06-17T19:41:25Z</time>
      </trkpt>
      <trkpt lat="47.77071" lon="-0.06829">
        <ele>79</ele>
        <time>2025-06-17T19:41:26Z</time>
      </trkpt>
      <trkpt lat="47.77024" lon="-0.06879">
        <ele>79</ele>
        <time>2025-06-17T19:41:36Z</time>
      </trkpt>
      <trkpt lat="47.76986" lon="-0.06921">
        <ele>79</ele>
        <time>2025-06-17T19:41:45Z</time>
      </trkpt>
      <trkpt lat="47.76977" lon="-0.06926">
        <ele>80</ele>
        <time>2025-06-17T19:41:47Z</time>
      </trkpt>
      <trkpt lat="47.76967" lon="-0.06928">
        <ele>80</ele>
        <time>2025-06-17T19:41:48Z</time>
      </trkpt>
      <trkpt lat="47.76956" lon="-0.06926">
        <ele>80</ele>
        <time>2025-06-17T19:41:50Z</time>
      </trkpt>
      <trkpt lat="47.76941" lon="-0.0692">
        <ele>80</ele>
        <time>2025-06-17T19:41:53Z</time>
      </trkpt>
      <trkpt lat="47.76942" lon="-0.06904">
        <ele>80</ele>
        <time>2025-06-17T19:41:55Z</time>
      </trkpt>
      <trkpt lat="47.76928" lon="-0.06903">
        <ele>80</ele>
        <time>2025-06-17T19:41:57Z</time>
      </trkpt>
      <trkpt lat="47.76884" lon="-0.06921">
        <ele>82</ele>
        <time>2025-06-17T19:42:06Z</time>
      </trkpt>
      <trkpt lat="47.76869" lon="-0.06923">
        <ele>82</ele>
        <time>2025-06-17T19:42:08Z</time>
      </trkpt>
      <trkpt lat="47.76816" lon="-0.06923">
        <ele>82</ele>
        <time>2025-06-17T19:42:18Z</time>
      </trkpt>
      <trkpt lat="47.76667" lon="-0.0702">
        <ele>85</ele>
        <time>2025-06-17T19:42:47Z</time>
      </trkpt>
      <trkpt lat="47.76636" lon="-0.07032">
        <ele>84</ele>
        <time>2025-06-17T19:42:52Z</time>
      </trkpt>
      <trkpt lat="47.76589" lon="-0.07043">
        <ele>82</ele>
        <time>2025-06-17T19:43:01Z</time>
      </trkpt>
      <trkpt lat="47.76511" lon="-0.07078">
        <ele>80</ele>
        <time>2025-06-17T19:43:15Z</time>
      </trkpt>
      <trkpt lat="47.764" lon="-0.07133">
        <ele>84</ele>
        <time>2025-06-17T19:43:36Z</time>
      </trkpt>
      <trkpt lat="47.76394" lon="-0.07138">
        <ele>84</ele>
        <time>2025-06-17T19:43:37Z</time>
      </trkpt>
      <trkpt lat="47.76371" lon="-0.07158">
        <ele>84</ele>
        <time>2025-06-17T19:43:42Z</time>
      </trkpt>
      <trkpt lat="47.76296" lon="-0.07235">
        <ele>84</ele>
        <time>2025-06-17T19:43:58Z</time>
      </trkpt>
      <trkpt lat="47.76259" lon="-0.07268">
        <ele>84</ele>
        <time>2025-06-17T19:44:06Z</time>
      </trkpt>
      <trkpt lat="47.76234" lon="-0.07264">
        <ele>83</ele>
        <time>2025-06-17T19:44:10Z</time>
      </trkpt>
      <trkpt lat="47.76144" lon="-0.07243">
        <ele>82</ele>
        <time>2025-06-17T19:44:27Z</time>
      </trkpt>
      <trkpt lat="47.75987" lon="-0.07234">
        <ele>89</ele>
        <time>2025-06-17T19:44:55Z</time>
      </trkpt>
      <trkpt lat="47.75948" lon="-0.07228">
        <ele>89</ele>
        <time>2025-06-17T19:45:02Z</time>
      </trkpt>
      <trkpt lat="47.75939" lon="-0.07212">
        <ele>89</ele>
        <time>2025-06-17T19:45:04Z</time>
      </trkpt>
      <trkpt lat="47.75943" lon="-0.07173">
        <ele>90</ele>
        <time>2025-06-17T19:45:09Z</time>
      </trkpt>
      <trkpt lat="47.75977" lon="-0.0695">
        <ele>87</ele>
        <time>2025-06-17T19:45:36Z</time>
      </trkpt>
      <trkpt lat="47.75981" lon="-0.06899">
        <ele>86</ele>
        <time>2025-06-17T19:45:42Z</time>
      </trkpt>
      <trkpt lat="47.7596" lon="-0.06732">
        <ele>83</ele>
        <time>2025-06-17T19:46:03Z</time>
      </trkpt>
      <trkpt lat="47.75835" lon="-0.06679">
        <ele>81</ele>
        <time>2025-06-17T19:46:26Z</time>
      </trkpt>
      <trkpt lat="47.75802" lon="-0.06674">
        <ele>80</ele>
        <time>2025-06-17T19:46:32Z</time>
      </trkpt>
      <trkpt lat="47.75735" lon="-0.06679">
        <ele>78</ele>
        <time>2025-06-17T19:46:44Z</time>
      </trkpt>
      <trkpt lat="47.7557" lon="-0.06646">
        <ele>79</ele>
        <time>2025-06-17T19:47:13Z</time>
      </trkpt>
      <trkpt lat="47.75544" lon="-0.06653">
        <ele>80</ele>
        <time>2025-06-17T19:47:18Z</time>
      </trkpt>
      <trkpt lat="47.7551" lon="-0.06697">
        <ele>81</ele>
        <time>2025-06-17T19:47:26Z</time>
      </trkpt>
      <trkpt lat="47.75481" lon="-0.067">
        <ele>82</ele>
        <time>2025-06-17T19:47:31Z</time>
      </trkpt>
      <trkpt lat="47.75366" lon="-0.06711">
        <ele>84</ele>
        <time>2025-06-17T19:47:52Z</time>
      </trkpt>
      <trkpt lat="47.75316" lon="-0.06707">
        <ele>86</ele>
        <time>2025-06-17T19:48:01Z</time>
      </trkpt>
      <trkpt lat="47.75287" lon="-0.06691">
        <ele>88</ele>
        <time>2025-06-17T19:48:06Z</time>
      </trkpt>
      <trkpt lat="47.75222" lon="-0.06627">
        <ele>88</ele>
        <time>2025-06-17T19:48:20Z</time>
      </trkpt>
      <trkpt lat="47.75084" lon="-0.06496">
        <ele>89</ele>
        <time>2025-06-17T19:48:49Z</time>
      </trkpt>
      <trkpt lat="47.75087" lon="-0.06701">
        <ele>90</ele>
        <time>2025-06-17T19:49:14Z</time>
      </trkpt>
      <trkpt lat="47.75083" lon="-0.06764">
        <ele>91</ele>
        <time>2025-06-17T19:49:21Z</time>
      </trkpt>
      <trkpt lat="47.75072" lon="-0.06867">
        <ele>92</ele>
        <time>2025-06-17T19:49:34Z</time>
      </trkpt>
      <trkpt lat="47.75072" lon="-0.06914">
        <ele>92</ele>
        <time>2025-06-17T19:49:39Z</time>
      </trkpt>
      <trkpt lat="47.75067" lon="-0.06921">
        <ele>92</ele>
        <time>2025-06-17T19:49:40Z</time>
      </trkpt>
      <trkpt lat="47.75051" lon="-0.06942">
        <ele>92</ele>
        <time>2025-06-17T19:49:44Z</time>
      </trkpt>
      <trkpt lat="47.75049" lon="-0.06968">
        <ele>92</ele>
        <time>2025-06-17T19:49:47Z</time>
      </trkpt>
      <trkpt lat="47.75051" lon="-0.07003">
        <ele>92</ele>
        <time>2025-06-17T19:49:52Z</time>
      </trkpt>
      <trkpt lat="47.75109" lon="-0.07273">
        <ele>91</ele>
        <time>2025-06-17T19:50:25Z</time>
      </trkpt>
      <trkpt lat="47.75114" lon="-0.07346">
        <ele>92</ele>
        <time>2025-06-17T19:50:34Z</time>
      </trkpt>
      <trkpt lat="47.75144" lon="-0.07567">
        <ele>93</ele>
        <time>2025-06-17T19:51:01Z</time>
      </trkpt>
      <trkpt lat="47.75084" lon="-0.07603">
        <ele>91</ele>
        <time>2025-06-17T19:51:13Z</time>
      </trkpt>
      <trkpt lat="47.75027" lon="-0.07619">
        <ele>91</ele>
        <time>2025-06-17T19:51:23Z</time>
      </trkpt>
      <trkpt lat="47.74976" lon="-0.07638">
        <ele>92</ele>
        <time>2025-06-17T19:51:32Z</time>
      </trkpt>
      <trkpt lat="47.74876" lon="-0.07699">
        <ele>92</ele>
        <time>2025-06-17T19:51:52Z</time>
      </trkpt>
      <trkpt lat="47.74833" lon="-0.07733">
        <ele>92</ele>
        <time>2025-06-17T19:52:00Z</time>
      </trkpt>
      <trkpt lat="47.74779" lon="-0.07818">
        <ele>92</ele>
        <time>2025-06-17T19:52:14Z</time>
      </trkpt>
      <trkpt lat="47.74747" lon="-0.07851">
        <ele>91</ele>
        <time>2025-06-17T19:52:21Z</time>
      </trkpt>
      <trkpt lat="47.74693" lon="-0.07857">
        <ele>89</ele>
        <time>2025-06-17T19:52:31Z</time>
      </trkpt>
      <trkpt lat="47.74558" lon="-0.0789">
        <ele>82</ele>
        <time>2025-06-17T19:52:55Z</time>
      </trkpt>
      <trkpt lat="47.74542" lon="-0.07888">
        <ele>80</ele>
        <time>2025-06-17T19:52:58Z</time>
      </trkpt>
      <trkpt lat="47.74532" lon="-0.07881">
        <ele>79</ele>
        <time>2025-06-17T19:53:00Z</time>
      </trkpt>
      <trkpt lat="47.74502" lon="-0.07871">
        <ele>76</ele>
        <time>2025-06-17T19:53:06Z</time>
      </trkpt>
      <trkpt lat="47.74437" lon="-0.07845">
        <ele>78</ele>
        <time>2025-06-17T19:53:17Z</time>
      </trkpt>
      <trkpt lat="47.74394" lon="-0.07816">
        <ele>81</ele>
        <time>2025-06-17T19:53:26Z</time>
      </trkpt>
      <trkpt lat="47.74314" lon="-0.07755">
        <ele>87</ele>
        <time>2025-06-17T19:53:42Z</time>
      </trkpt>
      <trkpt lat="47.74311" lon="-0.07752">
        <ele>88</ele>
        <time>2025-06-17T19:53:43Z</time>
      </trkpt>
      <trkpt lat="47.74204" lon="-0.07698">
        <ele>93</ele>
        <time>2025-06-17T19:54:03Z</time>
      </trkpt>
      <trkpt lat="47.74117" lon="-0.07634">
        <ele>97</ele>
        <time>2025-06-17T19:54:20Z</time>
      </trkpt>
      <trkpt lat="47.73989" lon="-0.07527">
        <ele>98</ele>
        <time>2025-06-17T19:54:46Z</time>
      </trkpt>
      <trkpt lat="47.73925" lon="-0.07475">
        <ele>93</ele>
        <time>2025-06-17T19:54:59Z</time>
      </trkpt>
      <trkpt lat="47.73746" lon="-0.0733">
        <ele>89</ele>
        <time>2025-06-17T19:55:35Z</time>
      </trkpt>
      <trkpt lat="47.73463" lon="-0.07103">
        <ele>100</ele>
        <time>2025-06-17T19:56:32Z</time>
      </trkpt>
      <trkpt lat="47.73274" lon="-0.06908">
        <ele>86</ele>
        <time>2025-06-17T19:57:13Z</time>
      </trkpt>
      <trkpt lat="47.7315" lon="-0.06779">
        <ele>78</ele>
        <time>2025-06-17T19:57:40Z</time>
      </trkpt>
      <trkpt lat="47.73077" lon="-0.06751">
        <ele>77</ele>
        <time>2025-06-17T19:57:54Z</time>
      </trkpt>
      <trkpt lat="47.72928" lon="-0.06697">
        <ele>83.9</ele>
        <time>2025-06-17T19:58:05Z</time>
      </trkpt>
      <trkpt lat="47.72861" lon="-0.06691">
        <ele>86</ele>
        <time>2025-06-17T19:58:21Z</time>
      </trkpt>
      <trkpt lat="47.72766" lon="-0.06581">
        <ele>91.5</ele>
        <time>2025-06-17T19:58:38Z</time>
      </trkpt>
      <trkpt lat="47.72576" lon="-0.06596">
        <ele>95.8</ele>
        <time>2025-06-17T19:58:52Z</time>
      </trkpt>
      <trkpt lat="47.72381" lon="-0.06693">
        <ele>95</ele>
        <time>2025-06-17T19:59:06Z</time>
      </trkpt>
      <trkpt lat="47.72312" lon="-0.06534">
        <ele>95</ele>
        <time>2025-06-17T19:59:11Z</time>
      </trkpt>
      <trkpt lat="47.72153" lon="-0.06508">
        <ele>94</ele>
      </trkpt>
      <trkpt lat="47.72068" lon="-0.06482">
        <ele>91</ele>
      </trkpt>
      <trkpt lat="47.71878" lon="-0.0651">
        <ele>89.2</ele>
      </trkpt>
      <trkpt lat="47.71845" lon="-0.06472">
        <ele>88.4</ele>
      </trkpt>
      <trkpt lat="47.71845" lon="-0.06285">
        <ele>88</ele>
      </trkpt>
      <trkpt lat="47.71789" lon="-0.0601">
        <ele>84.7</ele>
      </trkpt>
      <trkpt lat="47.71738" lon="-0.0606">
        <ele>81.4</ele>
      </trkpt>
      <trkpt lat="47.71712" lon="-0.06135">
        <ele>75.9</ele>
      </trkpt>
      <trkpt lat="47.71699" lon="-0.06221">
        <ele>71.3</ele>
      </trkpt>
      <trkpt lat="47.71701" lon="-0.06367">
        <ele>67</ele>
      </trkpt>
      <trkpt lat="47.71714" lon="-0.06581">
        <ele>57.6</ele>
      </trkpt>
      <trkpt lat="47.71705" lon="-0.06613">
        <ele>55.4</ele>
      </trkpt>
      <trkpt lat="47.71678" lon="-0.06601">
        <ele>50.5</ele>
      </trkpt>
      <trkpt lat="47.71557" lon="-0.06319">
        <ele>37.7</ele>
      </trkpt>
      <trkpt lat="47.71528" lon="-0.06201">
        <ele>36.8</ele>
      </trkpt>
      <trkpt lat="47.71482" lon="-0.05909">
        <ele>35</ele>
        <time>2025-06-17T20:08:38Z</time>
      </trkpt>
      <trkpt lat="47.71422" lon="-0.05904">
        <ele>33.5</ele>
      </trkpt>
      <trkpt lat="47.71347" lon="-0.0551">
        <ele>33.5</ele>
      </trkpt>
      <trkpt lat="47.71238" lon="-0.0507">
        <ele>35.4</ele>
      </trkpt>
      <trkpt lat="47.71105" lon="-0.05352">
        <ele>32</ele>
      </trkpt>
      <trkpt lat="47.70949" lon="-0.05613">
        <ele>31</ele>
      </trkpt>
      <trkpt lat="47.70867" lon="-0.05484">
        <ele>31</ele>
      </trkpt>
      <trkpt lat="47.70733" lon="-0.05421">
        <ele>31</ele>
      </trkpt>
      <trkpt lat="47.70408" lon="-0.0539">
        <ele>31.3</ele>
      </trkpt>
      <trkpt lat="47.70376" lon="-0.05358">
        <ele>31.6</ele>
      </trkpt>
      <trkpt lat="47.7035" lon="-0.05389">
        <ele>31.6</ele>
      </trkpt>
      <trkpt lat="47.70291" lon="-0.05346">
        <ele>31</ele>
      </trkpt>
      <trkpt lat="47.70287" lon="-0.0535">
        <ele>31</ele>
      </trkpt>
      <trkpt lat="47.70269" lon="-0.0534">
        <ele>31.2</ele>
      </trkpt>
      <trkpt lat="47.70236" lon="-0.05347">
        <ele>31.5</ele>
      </trkpt>
      <trkpt lat="47.70222" lon="-0.05334">
        <ele>31.9</ele>
      </trkpt>
      <trkpt lat="47.70213" lon="-0.05304">
        <ele>32</ele>
      </trkpt>
      <trkpt lat="47.70208" lon="-0.05262">
        <ele>31.5</ele>
      </trkpt>
      <trkpt lat="47.70113" lon="-0.05144">
        <ele>32</ele>
      </trkpt>
      <trkpt lat="47.70312" lon="-0.04797">
        <ele>31</ele>
        <time>2025-06-17T20:09:27Z</time>
      </trkpt>
    </trkseg>
  </trk>
</gpx>